Flight Track Log - Related Links

Times and Time Zones

All times are in EDT time to prevent confusion due to time zone crossing. See the THY34 flight status page for this flight to view local times or setup timezone preferences in your user account.

Time Position Orientation Groundspeed Altitude Reporting Facility
EDT Latitude Longitude Course Direction KTS MPH feet Rate Location/Type
Sat 09:21:27 PM 29.9918 -95.3515 270° West 13 15  Level FlightAware ADS-B
Sat 09:22:12 PM 29.9918 -95.3536 270° West 11 13 16 Level FlightAware ADS-B
Sat 09:25:14 PM 29.9880 -95.3574 241° Southwest 10 12 18 Level FlightAware ADS-B
Sat 09:25:59 PM 29.9873 -95.3575 241° Southwest 2 2 40 Level FlightAware ADS-B
Sat 09:27:30 PM 29.9766 -95.3510 151° Southeast 150 173 57 Level FlightAware ADS-B
Sat 09:27:45 PM 29.9666 -95.3448 151° Southeast 191 220 100 1,867 Climbing FlightAware ADS-B
Sat 09:28:15 PM 29.9413 -95.3323 173° South 192 221 1,400 2,471 Climbing FlightAware ADS-B
Sat 09:28:19 PM 29.9371 -95.3324 183° South 196 226 1,500 1,200 Climbing FlightAware ADS-B
Sat 09:28:25 PM 29.9329 -95.3333 197° South 202 232 1,600 1,200 Climbing FlightAware ADS-B
Sat 09:28:29 PM 29.9294 -95.3349 209° Southwest 208 239 1,700 1,091 Climbing FlightAware ADS-B
Sat 09:28:36 PM 29.9273 -95.3362 222° Southwest 216 249 1,800 545 Climbing FlightAware ADS-B
Sat 09:28:40 PM 29.9218 -95.3413 231° Southwest 222 255 1,800 750 Level FlightAware ADS-B
Sat 09:29:00 PM 29.9139 -95.3672 272° West 251 289 2,100 960 Climbing FlightAware ADS-B
Sat 09:29:05 PM 29.9146 -95.3734 282° West 255 293 2,200 1,200 Climbing FlightAware ADS-B
Sat 09:29:10 PM 29.9161 -95.3795 291° West 259 298 2,300 1,333 Climbing FlightAware ADS-B
Sat 09:29:14 PM 29.9187 -95.3858 300° West 264 304 2,400 1,833 Climbing FlightAware ADS-B
Sat 09:29:46 PM 29.9507 -95.4109 351° North 281 323 3,400 1,946 Climbing FlightAware ADS-B
Sat 09:29:51 PM 29.9574 -95.4114 North 282 325 3,600 2,667 Climbing FlightAware ADS-B
Sat 09:29:55 PM 29.9629 -95.4110 North 281 323 3,800 2,667 Climbing FlightAware ADS-B
Sat 09:30:00 PM 29.9694 -95.4094 16° North 282 325 4,000 2,100 Climbing FlightAware ADS-B
Sat 09:30:15 PM 29.9850 -95.4021 24° Northeast 286 329 4,500 2,449 Climbing FlightAware ADS-B
Sat 09:30:49 PM 30.0286 -95.3778 26° Northeast 289 333 6,000 2,571 Climbing FlightAware ADS-B
Sat 09:31:04 PM 30.0470 -95.3673 26° Northeast 292 336 6,600 2,323 Climbing FlightAware ADS-B
Sat 09:31:20 PM 30.0658 -95.3568 25° Northeast 292 336 7,200 2,323 Climbing FlightAware ADS-B
Sat 09:31:35 PM 30.0833 -95.3472 25° Northeast 296 341 7,800 2,276 Climbing FlightAware ADS-B
Sat 09:31:49 PM 30.1029 -95.3366 25° Northeast 301 346 8,300 2,160 Climbing FlightAware ADS-B
Sat 09:32:00 PM 30.1162 -95.3295 25° Northeast 300 345 8,700 2,222 Climbing FlightAware ADS-B
Sat 09:32:16 PM 30.1370 -95.3185 24° Northeast 306 352 9,300 2,233 Climbing FlightAware ADS-B
Sat 09:32:43 PM 30.1689 -95.3015 24° Northeast 309 356 10,300 1,619 Climbing FlightAware ADS-B
Sat 09:33:19 PM 30.2220 -95.2731 25° Northeast 344 396 11,000 1,125 Climbing FlightAware ADS-B
Sat 09:33:31 PM 30.2396 -95.2636 24° Northeast 352 405 11,200 1,920 Climbing FlightAware ADS-B
Sat 09:34:09 PM 30.2970 -95.2328 25° Northeast 360 414 12,600 2,118 Climbing FlightAware ADS-B
Sat 09:34:39 PM 30.3422 -95.2084 25° Northeast 366 421 13,600 2,000 Climbing FlightAware ADS-B
Sat 09:35:09 PM 30.3886 -95.1832 25° Northeast 370 426 14,600 2,100 Climbing FlightAware ADS-B
Sat 09:35:39 PM 30.4353 -95.1580 25° Northeast 370 426 15,700 1,967 Climbing FlightAware ADS-B
Sat 09:36:10 PM 30.4836 -95.1319 25° Northeast 375 432 16,600 1,800 Climbing FlightAware ADS-B
Sat 09:36:39 PM 30.5288 -95.1074 25° Northeast 381 438 17,500 1,729 Climbing FlightAware ADS-B
Sat 09:37:09 PM 30.5791 -95.0797 26° Northeast 389 448 18,300 1,574 Climbing FlightAware ADS-B
Sat 09:37:40 PM 30.6279 -95.0499 28° Northeast 393 452 19,100 1,600 Climbing FlightAware ADS-B
Sat 09:38:09 PM 30.6757 -95.0191 29° Northeast 399 459 19,900 1,627 Climbing FlightAware ADS-B
Sat 09:38:39 PM 30.7240 -94.9880 29° Northeast 405 466 20,700 1,475 Climbing FlightAware ADS-B
Sat 09:39:10 PM 30.7738 -94.9559 29° Northeast 410 472 21,400 1,400 Climbing FlightAware ADS-B
Sat 09:39:39 PM 30.8216 -94.9251 29° Northeast 414 476 22,100 1,100 Climbing FlightAware ADS-B
Sat 09:40:10 PM 30.8755 -94.8903 29° Northeast 428 493 22,500 712 Climbing FlightAware ADS-B
Sat 09:40:38 PM 30.9245 -94.8585 29° Northeast 440 506 22,800 915 Climbing FlightAware ADS-B
Sat 09:41:09 PM 30.9822 -94.8213 29° Northeast 447 514 23,400 1,180 Climbing FlightAware ADS-B
Sat 09:41:39 PM 31.0358 -94.7865 29° Northeast 452 520 24,000 1,300 Climbing FlightAware ADS-B
Sat 09:42:09 PM 31.0923 -94.7498 29° Northeast 456 525 24,700 1,400 Climbing FlightAware ADS-B
Sat 09:42:39 PM 31.1473 -94.7140 29° Northeast 457 526 25,400 1,279 Climbing FlightAware ADS-B
Sat 09:43:10 PM 31.2038 -94.6772 29° Northeast 462 532 26,000 1,100 Climbing FlightAware ADS-B
Sat 09:43:39 PM 31.2595 -94.6410 29° Northeast 467 537 26,500 1,119 Climbing FlightAware ADS-B
Sat 09:44:09 PM 31.3172 -94.6033 29° Northeast 470 541 27,100 1,200 Climbing FlightAware ADS-B
Sat 09:44:39 PM 31.3738 -94.5663 29° Northeast 473 544 27,700 1,082 Climbing FlightAware ADS-B
Sat 09:45:10 PM 31.4318 -94.5283 29° Northeast 477 549 28,200 1,600 Climbing FlightAware ADS-B
Sat 09:45:39 PM 31.4867 -94.4922 29° Northeast 467 537 29,300 2,237 Climbing FlightAware ADS-B
Sat 09:46:09 PM 31.5442 -94.4531 30° Northeast 457 526 30,400 1,636 Climbing FlightAware ADS-B
Sat 09:46:23 PM 31.5518 -94.4478 31° Northeast 456 525 30,500 296 Climbing FlightAware ADS-B
Sat 09:47:30 PM 31.6937 -94.3477 30° Northeast 480 552 30,800 297 Climbing FlightAware ADS-B
Sat 09:48:04 PM 31.7597 -94.3016 30° Northeast 489 563 31,000 188 Climbing FlightAware ADS-B
Sat 09:48:34 PM 31.8193 -94.2600 30° Northeast 489 563 31,000  Level FlightAware ADS-B
Sat 09:48:38 PM 31.8247 -94.2562 32° Northeast 473 544 31,000 200 Level FlightAware ADS-B
Sat 09:49:04 PM 31.8399 -94.2455 30° Northeast 489 563 31,100 643 Climbing FlightAware ADS-B
Sat 09:49:34 PM 31.9272 -94.1844 30° Northeast 489 563 31,600 947 Climbing FlightAware ADS-B
Sat 09:49:42 PM 31.9505 -94.1681 31° Northeast 489 563 31,700 774 Climbing FlightAware ADS-B
Sat 09:50:05 PM 31.9937 -94.1378 30° Northeast 489 563 32,000 980 Climbing FlightAware ADS-B
Sat 09:50:31 PM 32.0473 -94.1000 31° Northeast 488 562 32,500 1,059 Climbing FlightAware ADS-B
Sat 09:50:39 PM 32.0608 -94.0905 30° Northeast 487 560 32,600 947 Climbing FlightAware ADS-B
Sat 09:50:50 PM 32.0774 -94.0788 31° Northeast 486 559 32,800 727 Climbing FlightAware ADS-B
Sat 09:51:12 PM 32.1243 -94.0457 31° Northeast 489 563 33,000 414 Climbing FlightAware ADS-B
Sat 09:51:19 PM 32.1340 -94.0388 31° Northeast 490 564 33,000  Level FlightAware ADS-B
Sat 09:51:42 PM 32.1839 -94.0035 31° Northeast 492 566 33,000  Level FlightAware ADS-B
Sat 09:52:20 PM 32.2582 -93.9509 31° Northeast 485 558 33,000  Level FlightAware ADS-B
Sat 09:52:22 PM 32.2555 -93.9528 31° Northeast 486 559 33,000  Level FlightAware ADS-B
Sat 09:52:51 PM 32.3159 -93.9100 31° Northeast 480 552 33,000  Level FlightAware ADS-B
Sat 09:52:52 PM 32.3190 -93.9078 31° Northeast 481 554 33,000  Level FlightAware ADS-B
Sat 09:53:32 PM 32.3962 -93.8530 31° Northeast 486 559 33,000  Level FlightAware ADS-B
Sat 09:54:10 PM 32.4704 -93.8002 31° Northeast 492 566 33,000  Level FlightAware ADS-B
Sat 09:54:20 PM 32.4614 -93.8066 31° Northeast 492 566 33,000  Level FlightAware ADS-B
Sat 09:54:40 PM 32.5188 -93.7656 31° Northeast 489 563 33,000  Level FlightAware ADS-B
Sat 09:55:06 PM 32.5724 -93.7274 31° Northeast 492 566 33,000  Level FlightAware ADS-B
Sat 09:55:12 PM 32.5864 -93.7174 31° Northeast 492 566 33,000  Level FlightAware ADS-B
Sat 09:55:42 PM 32.6437 -93.6764 31° Northeast 491 565 33,000  Level FlightAware ADS-B
Sat 09:55:51 PM 32.6635 -93.6622 31° Northeast 490 564 33,000  Level FlightAware ADS-B
Sat 09:56:21 PM 32.7178 -93.6234 31° Northeast 486 559 33,000  Level FlightAware ADS-B
Sat 09:56:51 PM 32.7823 -93.5771 31° Northeast 484 557 33,000  Level FlightAware ADS-B
Sat 09:57:22 PM 32.8414 -93.5346 31° Northeast 485 558 33,000  Level FlightAware ADS-B
Sat 09:57:52 PM 32.8974 -93.4941 31° Northeast 485 558 33,000  Level FlightAware ADS-B
Sat 09:58:42 PM 32.9935 -93.4248 31° Northeast 483 556 33,000  Level FlightAware ADS-B
Sat 09:58:49 PM 33.0019 -93.4187 31° Northeast 484 557 33,000  Level FlightAware ADS-B
Sat 09:59:12 PM 33.0516 -93.3828 31° Northeast 484 557 33,000  Level FlightAware ADS-B
Sat 09:59:51 PM 33.1275 -93.3273 33° Northeast 483 556 33,000  Level FlightAware ADS-B
Sat 10:00:22 PM 33.1741 -93.2898 35° Northeast 481 554 33,000  Level FlightAware ADS-B
Sat 10:00:52 PM 33.2080 -93.2607 37° Northeast 481 554 33,000  Level FlightAware ADS-B
Sat 10:01:27 PM 33.2942 -93.1819 38° Northeast 482 555 33,000  Level FlightAware ADS-B
Sat 10:02:02 PM 33.3601 -93.1196 38° Northeast 482 555 33,000  Level FlightAware ADS-B
Sat 10:07:13 PM 33.9000 -92.6071 39° Northeast 477 549 33,000  Level FlightAware ADS-B
Sat 10:08:32 PM 34.0367 -92.4765 39° Northeast 475 547 33,000  Level FlightAware ADS-B
Sat 10:09:36 PM 34.1468 -92.3708 39° Northeast 476 548 33,000  Level FlightAware ADS-B
Sat 10:10:17 PM 34.2147 -92.3054 39° Northeast 477 549 33,000  Level FlightAware ADS-B
Sat 10:10:56 PM 34.2848 -92.2378 39° Northeast 478 550 33,000  Level FlightAware ADS-B
Sat 10:11:37 PM 34.3554 -92.1696 39° Northeast 480 552 33,000  Level FlightAware ADS-B
Sat 10:12:16 PM 34.4241 -92.1030 39° Northeast 482 555 33,000  Level FlightAware ADS-B
Sat 10:12:56 PM 34.4941 -92.0352 39° Northeast 483 556 33,000  Level FlightAware ADS-B
Sat 10:13:37 PM 34.5621 -91.9689 39° Northeast 484 557 33,000  Level FlightAware ADS-B
Sat 10:14:16 PM 34.6337 -91.8992 39° Northeast 485 558 33,000  Level FlightAware ADS-B
Sat 10:14:51 PM 34.6911 -91.8434 39° Northeast 487 560 33,000  Level FlightAware ADS-B
Sat 10:15:36 PM 34.7726 -91.7636 39° Northeast 488 562 33,000  Level FlightAware ADS-B
Sat 10:16:27 PM 34.8467 -91.6906 39° Northeast 485 558 33,000  Level Kansas City Center
Sat 10:17:29 PM 34.9514 -91.5856 39° Northeast 487 560 33,000  Level Kansas City Center
Sat 10:18:30 PM 35.0567 -91.4825 39° Northeast 487 560 33,000  Level Kansas City Center
Sat 10:19:48 PM 35.2089 -91.3342 39° Northeast 489 563 33,000  Level Memphis Center
Sat 10:20:49 PM 35.3147 -91.2294 39° Northeast 490 564 33,000  Level Memphis Center
Sat 10:21:50 PM 35.4206 -91.1242 39° Northeast 490 564 33,000  Level Memphis Center
Sat 10:22:50 PM 35.5217 -91.0217 40° Northeast 490 564 33,000  Level Memphis Center
Sat 10:23:51 PM 35.6283 -90.9144 39° Northeast 490 564 33,000  Level Memphis Center
Sat 10:24:52 PM 35.7461 -90.7967 39° Northeast 491 565 33,000  Level Memphis Center
Sat 10:25:53 PM 35.8528 -90.6875 40° Northeast 495 570 33,000  Level Memphis Center
Sat 10:26:54 PM 35.9597 -90.5789 39° Northeast 495 570 33,000  Level Memphis Center
Sat 10:27:55 PM 36.0678 -90.4703 39° Northeast 496 571 33,000  Level Memphis Center
Sat 10:28:56 PM 36.1747 -90.3608 40° Northeast 496 571 33,000  Level Memphis Center
Sat 10:29:56 PM 36.2814 -90.2511 40° Northeast 496 571 33,000  Level Memphis Center
Sat 10:30:57 PM 36.3875 -90.1406 40° Northeast 496 571 33,000  Level Memphis Center
Sat 10:31:58 PM 36.4936 -90.0314 40° Northeast 496 571 33,000  Level Memphis Center
Sat 10:32:59 PM 36.5986 -89.9217 40° Northeast 495 570 33,000  Level Memphis Center
Sat 10:34:00 PM 36.7050 -89.8114 40° Northeast 494 568 33,000  Level Memphis Center
Sat 10:35:00 PM 36.8119 -89.7003 40° Northeast 494 568 33,000  Level Memphis Center
Sat 10:36:01 PM 36.9192 -89.5869 40° Northeast 495 570 33,000  Level Memphis Center
Sat 10:37:02 PM 37.0267 -89.4744 40° Northeast 498 573 33,000  Level Memphis Center
Sat 10:38:03 PM 37.1350 -89.3589 40° Northeast 502 578 33,000  Level Memphis Center
Sat 10:39:03 PM 37.2419 -89.2450 40° Northeast 504 580 33,000  Level Memphis Center
Sat 10:40:04 PM 37.3478 -89.1317 40° Northeast 503 579 33,000  Level Memphis Center
Sat 10:41:05 PM 37.4522 -89.0186 41° Northeast 500 575 33,000  Level Memphis Center
Sat 10:42:06 PM 37.5586 -88.9053 40° Northeast 500 575 33,000  Level Memphis Center
Sat 10:42:57 PM 37.6625 -88.7922 41° Northeast 497 572 33,000  Level Kansas City Center
Sat 10:43:58 PM 37.7617 -88.6856 40° Northeast 494 568 33,000  Level Kansas City Center
Sat 10:44:58 PM 37.8678 -88.5731 40° Northeast 494 568 33,000  Level Kansas City Center
Sat 10:46:00 PM 37.9722 -88.4575 41° Northeast 494 568 33,000  Level Kansas City Center
Sat 10:47:00 PM 38.0764 -88.3422 41° Northeast 494 568 33,000  Level Kansas City Center
Sat 10:47:50 PM 38.1606 -88.2486 41° Northeast 496 571 33,000  Level Indianapolis Center
Sat 10:48:50 PM 38.2656 -88.1333 41° Northeast 496 571 33,000  Level Indianapolis Center
Sat 10:49:51 PM 38.3719 -88.0178 40° Northeast 496 571 33,000  Level Indianapolis Center
Sat 10:50:52 PM 38.4769 -87.8997 41° Northeast 497 572 33,000  Level Indianapolis Center
Sat 10:51:53 PM 38.5839 -87.7808 41° Northeast 499 574 33,000  Level Indianapolis Center
Sat 10:52:54 PM 38.6903 -87.6611 41° Northeast 501 577 33,000  Level Indianapolis Center
Sat 10:58:59 PM 39.3576 -86.9000 42° Northeast 516 594 33,000  Level FlightAware ADS-B
Sat 11:00:37 PM 39.5090 -86.7246 42° Northeast 516 594 33,000  Level FlightAware ADS-B
Sat 11:01:47 PM 39.6528 -86.5573 42° Northeast 516 594 33,000  Level FlightAware ADS-B
Sat 11:02:17 PM 39.7091 -86.4914 42° Northeast 517 595 33,000  Level FlightAware ADS-B
Sat 11:02:47 PM 39.7619 -86.4294 42° Northeast 518 596 33,000  Level FlightAware ADS-B
Sat 11:04:05 PM 39.8902 -86.3044 39° Northeast 515 593 33,000  Level FlightAware ADS-B
Sat 11:04:58 PM 40.0050 -86.1800 39° Northeast 515 593 33,000  Level FlightAware ADS-B
Sat 11:07:18 PM 40.2689 -85.9123 38° Northeast 513 590 33,000  Level FlightAware ADS-B
Sat 11:08:08 PM 40.3623 -85.8188 38° Northeast 513 590 33,000  Level FlightAware ADS-B
Sat 11:09:53 PM 40.5603 -85.6185 38° Northeast 513 590 33,000  Level FlightAware ADS-B
Sat 11:10:37 PM 40.6276 -85.5497 38° Northeast 512 589 33,000  Level FlightAware ADS-B
Sat 11:11:12 PM 40.7083 -85.4673 38° Northeast 512 589 33,000  Level FlightAware ADS-B
Sat 11:11:47 PM 40.7736 -85.4002 38° Northeast 512 589 33,000  Level FlightAware ADS-B
Sat 11:13:26 PM 40.9473 -85.2209 38° Northeast 513 590 33,000  Level FlightAware ADS-B
Sat 11:15:07 PM 41.1473 -85.0134 38° Northeast 516 594 33,000  Level FlightAware ADS-B
Sat 11:16:07 PM 41.2592 -84.8965 38° Northeast 518 596 33,000  Level FlightAware ADS-B
Sat 11:17:41 PM 41.4353 -84.7116 39° Northeast 519 597 33,000  Level FlightAware ADS-B
Sat 11:18:12 PM 41.4917 -84.6522 39° Northeast 519 597 33,000  Level FlightAware ADS-B
Sat 11:19:01 PM 41.5858 -84.5524 39° Northeast 517 595 33,000  Level FlightAware ADS-B
Sat 11:20:24 PM 41.7421 -84.3863 39° Northeast 519 597 33,000  Level FlightAware ADS-B
Sat 11:21:09 PM 41.8229 -84.2998 39° Northeast 519 597 33,000  Level FlightAware ADS-B
Sat 11:21:45 PM 41.8836 -84.2347 39° Northeast 520 598 33,000  Level FlightAware ADS-B
Sat 11:22:24 PM 41.9335 -84.1811 39° Northeast 521 600 33,000  Level FlightAware ADS-B
Sat 11:23:22 PM 41.9230 -84.1925 39° Northeast 523 602 33,000  Level FlightAware ADS-B
Sat 11:24:51 PM 41.9335 -84.1811 39° Northeast 524 603 33,000  Level FlightAware ADS-B
Sat 11:25:31 PM 42.3174 -83.7648 39° Northeast 523 602 33,000  Level FlightAware ADS-B (CYYZ)
Sat 11:26:09 PM 42.3812 -83.6950 39° Northeast 522 601 33,000  Level FlightAware ADS-B (CYYZ)
Sat 11:27:01 PM 42.4868 -83.5789 39° Northeast 523 602 33,000  Level FlightAware ADS-B (CYYZ)
Sat 11:27:47 PM 42.5714 -83.4855 39° Northeast 522 601 33,000  Level FlightAware ADS-B (CYYZ)
Sat 11:28:08 PM 42.4662 -83.6016 39° Northeast 522 601 33,000  Level FlightAware ADS-B (EPLB / LUZ)
Sat 11:28:32 PM 42.6561 -83.3919 39° Northeast 524 603 33,000  Level FlightAware ADS-B (CYYZ)
Sat 11:28:49 PM 42.4662 -83.6016 39° Northeast 525 604 33,000  Level FlightAware ADS-B (EPLB / LUZ)
Sat 11:29:17 PM 42.7409 -83.2976 39° Northeast 525 604 33,000  Level FlightAware ADS-B (CYYZ)
Sat 11:29:32 PM 42.5067 -83.5570 39° Northeast 525 604 33,000  Level FlightAware ADS-B
Sat 11:30:02 PM 42.8263 -83.2024 39° Northeast 527 606 33,000  Level FlightAware ADS-B (CYYZ)
Sat 11:30:47 PM 42.9118 -83.1067 39° Northeast 527 606 33,000  Level FlightAware ADS-B (CYYZ)
Sat 11:30:52 PM 42.5067 -83.5570 40° Northeast 528 608 33,000  Level FlightAware ADS-B
Sat 11:31:32 PM 42.9957 -83.0123 39° Northeast 527 606 33,000  Level FlightAware ADS-B (CYYZ)
Sat 11:32:18 PM 43.0816 -82.9155 39° Northeast 529 609 33,000  Level FlightAware ADS-B (CYYZ)
Sat 11:33:03 PM 43.1660 -82.8201 39° Northeast 530 610 33,000  Level FlightAware ADS-B (CYYZ)
Sat 11:33:48 PM 43.2495 -82.7181 46° Northeast 535 616 33,000  Level FlightAware ADS-B (CYYZ)
Sat 11:34:34 PM 43.3176 -82.5986 54° Northeast 543 625 33,000  Level FlightAware ADS-B (CYYZ)
Sat 11:35:19 PM 43.3841 -82.4681 55° Northeast 544 626 33,000  Level FlightAware ADS-B (CYYZ)
Sat 11:36:04 PM 43.4482 -82.3410 55° Northeast 543 625 33,000  Level FlightAware ADS-B (CYYZ)
Sat 11:36:32 PM 43.4849 -82.2683 55° Northeast 544 626 33,000  Level FlightAware ADS-B
Sat 11:36:49 PM 43.5127 -82.2132 55° Northeast 544 626 33,000  Level FlightAware ADS-B (CYYZ)
Sat 11:37:34 PM 43.5783 -82.0828 55° Northeast 544 626 33,000  Level FlightAware ADS-B (CYYZ)
Sat 11:38:20 PM 43.6428 -81.9539 55° Northeast 544 626 33,000  Level FlightAware ADS-B (CYYZ)
Sat 11:38:32 PM 43.6608 -81.9179 56° Northeast 545 627 33,000  Level FlightAware ADS-B (EPLB / LUZ)
Sat 11:39:05 PM 43.7071 -81.8252 55° Northeast 545 627 33,000  Level FlightAware ADS-B (CYYZ)
Sat 11:39:23 PM 43.7251 -81.7891 56° Northeast 546 628 33,000  Level FlightAware ADS-B (EPLB / LUZ)
Sat 11:39:49 PM 43.7702 -81.6983 55° Northeast 545 627 33,000  Level FlightAware ADS-B (CYYZ)
Sat 11:40:10 PM 43.7716 -81.6954 56° Northeast 545 627 33,000  Level FlightAware ADS-B (EPLB / LUZ)
Sat 11:40:35 PM 43.8358 -81.5656 55° Northeast 544 626 33,000  Level FlightAware ADS-B (CYYZ)
Sat 11:40:57 PM 43.8602 -81.5163 56° Northeast 545 627 33,000  Level FlightAware ADS-B (EPLB / LUZ)
Sat 11:41:20 PM 43.9005 -81.4343 55° Northeast 546 628 33,000  Level FlightAware ADS-B (CYYZ)
Sat 11:41:29 PM 43.9122 -81.4106 56° Northeast 549 632 33,000  Level FlightAware ADS-B (EPLB / LUZ)
Sat 11:41:51 PM 43.9430 -81.3477 55° Northeast 549 632 33,000  Level FlightAware ADS-B (CYYZ)
Sat 11:42:09 PM 43.9678 -81.2972 56° Northeast 548 631 33,000  Level FlightAware ADS-B (EPLB / LUZ)
Sat 11:42:36 PM 44.0066 -81.2175 56° Northeast 548 631 33,000  Level FlightAware ADS-B (CYYZ)
Sat 11:42:50 PM 44.0267 -81.1762 56° Northeast 548 631 33,000  Level FlightAware ADS-B (EPLB / LUZ)
Sat 11:43:21 PM 44.0714 -81.0843 55° Northeast 546 628 33,000  Level FlightAware ADS-B (CYYZ)
Sat 11:43:30 PM 44.0680 -81.0912 56° Northeast 548 631 33,000  Level FlightAware ADS-B (EPLB / LUZ)
Sat 11:44:06 PM 44.1350 -80.9532 56° Northeast 546 628 33,000  Level FlightAware ADS-B (CYYZ)
Sat 11:44:28 PM 44.1590 -80.9036 56° Northeast 549 632 33,000  Level FlightAware ADS-B (EPLB / LUZ)
Sat 11:44:51 PM 44.1990 -80.8203 56° Northeast 549 632 33,000  Level FlightAware ADS-B (CYYZ)
Sat 11:45:22 PM 44.2425 -80.7294 56° Northeast 548 631 33,000  Level FlightAware ADS-B (EPLB / LUZ)
Sat 11:45:36 PM 44.2622 -80.6884 56° Northeast 547 629 33,000  Level FlightAware ADS-B (CYYZ)
Sat 11:46:01 PM 44.2970 -80.6158 56° Northeast 546 628 33,000  Level FlightAware ADS-B (EPLB / LUZ)
Sat 11:46:22 PM 44.3258 -80.5555 56° Northeast 546 628 33,000  Level FlightAware ADS-B (CYYZ)
Sat 11:46:39 PM 44.3330 -80.5403 57° Northeast 548 631 33,000  Level FlightAware ADS-B (EPLB / LUZ)
Sat 11:47:06 PM 44.3882 -80.4242 56° Northeast 549 632 33,000  Level FlightAware ADS-B (CYYZ)
Sat 11:47:32 PM 44.2650 -80.6826 57° Northeast 550 633 33,000  Level FlightAware ADS-B (CYKF)
Sat 11:47:52 PM 44.4518 -80.2898 56° Northeast 549 632 33,000  Level FlightAware ADS-B (CYYZ)
Sat 11:48:37 PM 44.5147 -80.1566 56° Northeast 545 627 33,000  Level FlightAware ADS-B (CYYZ)
Sat 11:49:22 PM 44.5766 -80.0243 56° Northeast 545 627 33,000  Level FlightAware ADS-B (CYYZ)
Sat 11:49:50 PM 44.6139 -79.9446 57° Northeast 546 628 33,000  Level FlightAware ADS-B (EPLB / LUZ)
Sat 11:50:07 PM 44.6390 -79.8908 56° Northeast 544 626 33,000  Level FlightAware ADS-B (CYYZ)
Sat 11:50:23 PM 44.6587 -79.8482 57° Northeast 544 626 33,000  Level FlightAware ADS-B (EPLB / LUZ)
Sat 11:50:52 PM 44.6992 -79.7568 58° Northeast 542 624 33,000  Level FlightAware ADS-B (CYYZ)
Sat 11:51:01 PM 44.7084 -79.7357 59° Northeast 543 625 33,000  Level FlightAware ADS-B (EPLB / LUZ)
Sat 11:51:35 PM 44.7486 -79.6393 60° Northeast 543 625 33,000  Level FlightAware ADS-B (EPLB / LUZ)
Sat 11:51:38 PM 44.7569 -79.6191 60° Northeast 543 625 33,000  Level FlightAware ADS-B (CYYZ)
Sat 11:52:23 PM 44.8120 -79.4821 60° Northeast 543 625 33,000  Level FlightAware ADS-B (CYYZ)
Sat 11:53:08 PM 44.8669 -79.3427 61° Northeast 541 623 33,000  Level FlightAware ADS-B (CYYZ)
Sat 11:53:53 PM 44.9212 -79.2029 61° Northeast 545 627 33,000  Level FlightAware ADS-B (CYYZ)
Sat 11:54:22 PM 44.9436 -79.1451 62° Northeast 544 626 33,000  Level FlightAware ADS-B
Sat 11:54:38 PM 44.9760 -79.0612 61° Northeast 542 624 33,000  Level FlightAware ADS-B (CYYZ)
Sat 11:54:54 PM 44.9959 -79.0097 62° Northeast 543 625 33,000  Level FlightAware ADS-B
Sat 11:55:22 PM 45.0292 -78.9234 61° Northeast 543 625 33,000  Level FlightAware ADS-B (CYYZ)
Sat 11:55:55 PM 45.0683 -78.8220 62° Northeast 543 625 33,000  Level FlightAware ADS-B
Sat 11:56:08 PM 45.0842 -78.7803 61° Northeast 541 623 33,000  Level FlightAware ADS-B (CYYZ)
Sat 11:56:34 PM 45.1107 -78.7114 62° Northeast 542 624 33,000  Level FlightAware ADS-B
Sat 11:56:53 PM 45.1372 -78.6423 61° Northeast 543 625 33,000  Level FlightAware ADS-B (CYYZ)
Sat 11:57:13 PM 45.1617 -78.5784 62° Northeast 547 629 33,000  Level FlightAware ADS-B
Sat 11:57:38 PM 45.1920 -78.4989 61° Northeast 548 631 33,000  Level FlightAware ADS-B (CYYZ)
Sat 11:58:23 PM 45.2453 -78.3584 61° Northeast 549 632 33,000  Level FlightAware ADS-B (CYYZ)
Sat 11:59:09 PM 45.2986 -78.2176 61° Northeast 550 633 33,000  Level FlightAware ADS-B (CYYZ)
Sat 11:59:14 PM 45.2023 -78.4717 62° Northeast 549 632 33,000  Level FlightAware ADS-B
Sat 11:59:54 PM 45.3542 -78.0698 61° Northeast 551 634 33,000  Level FlightAware ADS-B (CYYZ)
Sun 12:00:39 AM 45.4088 -77.9242 61° Northeast 551 634 33,000  Level FlightAware ADS-B (CYYZ)
Sun 12:01:07 AM 45.4420 -77.8352 62° Northeast 552 635 33,000  Level FlightAware ADS-B
Sun 12:01:24 AM 45.4620 -77.7812 62° Northeast 552 635 33,000  Level FlightAware ADS-B (CYYZ)
Sun 12:01:47 AM 45.4894 -77.7073 62° Northeast 553 636 33,000  Level FlightAware ADS-B
Sun 12:02:09 AM 45.5163 -77.6346 62° Northeast 553 636 33,000  Level FlightAware ADS-B (CYYZ)
Sun 12:02:17 AM 45.5229 -77.6165 62° Northeast 553 636 33,000  Level FlightAware ADS-B
Sun 12:02:26 AM 45.5360 -77.5800 62° Northeast 553 636 33,000  Level FlightAware ADS-B
Sun 12:02:54 AM 45.5694 -77.4900 62° Northeast 549 632 33,000  Level FlightAware ADS-B (CYYZ)
Sun 12:02:56 AM 45.5715 -77.4842 63° Northeast 549 632 33,000  Level FlightAware ADS-B
Sun 12:03:27 AM 45.6079 -77.3849 63° Northeast 549 632 33,000  Level FlightAware ADS-B
Sun 12:03:39 AM 45.6224 -77.3452 62° Northeast 548 631 33,000  Level FlightAware ADS-B (CYYZ)
Sun 12:04:04 AM 45.6510 -77.2660 62° Northeast 550 633 33,000  Level FlightAware ADS-B
Sun 12:04:06 AM 45.6543 -77.2579 63° Northeast 550 633 33,000  Level FlightAware ADS-B
Sun 12:04:24 AM 45.6737 -77.2045 62° Northeast 549 632 33,000  Level FlightAware ADS-B (CYYZ)
Sun 12:04:37 AM 45.6900 -77.1595 63° Northeast 548 631 33,000  Level FlightAware ADS-B
Sun 12:04:41 AM 45.6920 -77.1550 62° Northeast 549 632 33,000  Level FlightAware ADS-B
Sun 12:04:57 AM 45.7051 -77.1178 62° Northeast 547 629 33,000  Level FlightAware ADS-B (CYYZ)
Sun 12:05:16 AM 45.7356 -77.0337 63° Northeast 547 629 33,000  Level FlightAware ADS-B
Sun 12:05:47 AM 45.7698 -76.9386 63° Northeast 548 631 33,000  Level FlightAware ADS-B
Sun 12:05:55 AM 45.7793 -76.9121 62° Northeast 548 631 33,000  Level FlightAware ADS-B (CYYZ)
Sun 12:06:17 AM 45.8054 -76.8394 63° Northeast 546 628 33,000  Level FlightAware ADS-B
Sun 12:06:40 AM 45.8318 -76.7657 62° Northeast 544 626 33,000  Level FlightAware ADS-B (CYYZ)
Sun 12:06:47 AM 45.8389 -76.7458 63° Northeast 544 626 33,000  Level FlightAware ADS-B
Sun 12:07:17 AM 45.8626 -76.6791 63° Northeast 543 625 33,000  Level FlightAware ADS-B
Sun 12:07:25 AM 45.8836 -76.6202 62° Northeast 543 625 33,000  Level FlightAware ADS-B (CYYZ)
Sun 12:07:48 AM 45.9081 -76.5512 63° Northeast 543 625 33,000  Level FlightAware ADS-B
Sun 12:08:18 AM 45.9433 -76.4520 63° Northeast 541 623 33,000  Level FlightAware ADS-B
Sun 12:08:46 AM 45.9740 -76.3640 63° Northeast 541 623 33,000  Level FlightAware ADS-B
Sun 12:08:54 AM 45.9837 -76.3376 63° Northeast 540 621 33,000  Level FlightAware ADS-B (CYYZ)
Sun 12:08:57 AM 45.9880 -76.3255 63° Northeast 540 621 33,000  Level FlightAware ADS-B
Sun 12:09:18 AM 46.0120 -76.2580 63° Northeast 542 624 33,000  Level FlightAware ADS-B
Sun 12:09:28 AM 46.0224 -76.2275 63° Northeast 541 623 33,000  Level FlightAware ADS-B
Sun 12:09:51 AM 46.0480 -76.1540 63° Northeast 542 624 33,000  Level FlightAware ADS-B
Sun 12:10:07 AM 46.0667 -76.1005 63° Northeast 541 623 33,000  Level FlightAware ADS-B
Sun 12:10:24 AM 46.0850 -76.0470 63° Northeast 542 624 33,000  Level FlightAware ADS-B
Sun 12:10:38 AM 46.1000 -76.0048 64° Northeast 540 621 33,000  Level FlightAware ADS-B
Sun 12:10:55 AM 46.1190 -75.9500 63° Northeast 540 621 33,000  Level FlightAware ADS-B
Sun 12:11:08 AM 46.1339 -75.9067 64° Northeast 539 620 33,000  Level FlightAware ADS-B
Sun 12:11:30 AM 46.1590 -75.8350 63° Northeast 540 621 33,000  Level FlightAware ADS-B
Sun 12:11:39 AM 46.1648 -75.8174 64° Northeast 539 620 33,000  Level FlightAware ADS-B
Sun 12:12:06 AM 46.1990 -75.7190 63° Northeast 540 621 33,000  Level FlightAware ADS-B
Sun 12:12:09 AM 46.2008 -75.7127 64° Northeast 539 620 33,000  Level FlightAware ADS-B
Sun 12:12:42 AM 46.2380 -75.6040 63° Northeast 539 620 33,000  Level FlightAware ADS-B
Sun 12:12:49 AM 46.2453 -75.5828 64° Northeast 538 619 33,000  Level FlightAware ADS-B
Sun 12:13:19 AM 46.2780 -75.4880 63° Northeast 537 618 33,000  Level FlightAware ADS-B
Sun 12:13:48 AM 46.3100 -75.3920 63° Northeast 537 618 33,000  Level FlightAware ADS-B
Sun 12:13:49 AM 46.3104 -75.3918 64° Northeast 536 617 33,000  Level FlightAware ADS-B
Sun 12:14:19 AM 46.3423 -75.2975 64° Northeast 534 615 33,000  Level FlightAware ADS-B
Sun 12:14:55 AM 46.3820 -75.1790 64° Northeast 531 611 33,000  Level FlightAware ADS-B
Sun 12:14:59 AM 46.3864 -75.1665 64° Northeast 530 610 33,000  Level FlightAware ADS-B
Sun 12:15:29 AM 46.4174 -75.0743 64° Northeast 528 608 33,000  Level FlightAware ADS-B
Sun 12:15:30 AM 46.4200 -75.0650 64° Northeast 529 609 33,000  Level FlightAware ADS-B
Sun 12:16:00 AM 46.4520 -74.9710 64° Northeast 530 610 33,000  Level FlightAware ADS-B
Sun 12:16:36 AM 46.4910 -74.8550 64° Northeast 535 616 33,000  Level FlightAware ADS-B
Sun 12:17:13 AM 46.5290 -74.7390 64° Northeast 537 618 33,000  Level FlightAware ADS-B
Sun 12:17:49 AM 46.5680 -74.6220 64° Northeast 538 619 33,000 169 Level FlightAware ADS-B
Sun 12:18:24 AM 46.6060 -74.5060 64° Northeast 538 619 33,200 455 Climbing FlightAware ADS-B
Sun 12:18:55 AM 46.6380 -74.4070 64° Northeast 540 621 33,500 545 Climbing FlightAware ADS-B
Sun 12:19:30 AM 46.6770 -74.2900 64° Northeast 544 626 33,800 423 Climbing FlightAware ADS-B
Sun 12:20:06 AM 46.7150 -74.1720 64° Northeast 545 627 34,000 164 Climbing FlightAware ADS-B
Sun 12:20:43 AM 46.7540 -74.0510 64° Northeast 544 626 34,000  Level FlightAware ADS-B
Sun 12:21:13 AM 46.7850 -73.9530 64° Northeast 544 626 34,000  Level FlightAware ADS-B
Sun 12:22:26 AM 46.8630 -73.7080 65° Northeast 543 625 34,000  Level FlightAware ADS-B
Sun 12:22:57 AM 46.8950 -73.6080 65° Northeast 543 625 34,000  Level FlightAware ADS-B
Sun 12:23:28 AM 46.9290 -73.5010 65° Northeast 544 626 34,000  Level FlightAware ADS-B
Sun 12:23:59 AM 46.9610 -73.4010 65° Northeast 542 624 34,000  Level FlightAware ADS-B
Sun 12:24:28 AM 46.9910 -73.3030 65° Northeast 543 625 34,000  Level FlightAware ADS-B
Sun 12:24:58 AM 47.0230 -73.2020 65° Northeast 543 625 34,000  Level FlightAware ADS-B
Sun 12:25:34 AM 47.0600 -73.0820 65° Northeast 543 625 34,000  Level FlightAware ADS-B
Sun 12:26:04 AM 47.0910 -72.9820 65° Northeast 544 626 34,000  Level FlightAware ADS-B
Sun 12:26:40 AM 47.1280 -72.8620 65° Northeast 544 626 34,000  Level FlightAware ADS-B
Sun 12:27:16 AM 47.1650 -72.7400 65° Northeast 546 628 34,000  Level FlightAware ADS-B
Sun 12:27:52 AM 47.2000 -72.6260 65° Northeast 545 627 34,000  Level FlightAware ADS-B
Sun 12:28:22 AM 47.2310 -72.5270 66° East 546 628 34,000  Level FlightAware ADS-B
Sun 12:29:07 AM 47.2780 -72.3710 66° East 546 628 34,000  Level FlightAware ADS-B
Sun 12:29:52 AM 47.3230 -72.2180 66° East 545 627 34,000  Level FlightAware ADS-B
Sun 12:31:52 AM 47.4460 -71.8070 66° East 547 629 34,000  Level FlightAware ADS-B
Sun 12:33:14 AM 47.5167 -71.5167 66° East 550 633 34,000  Level Montreal Center
Sun 12:34:14 AM 47.5667 -71.3167 70° East 540 621 34,000  Level Montreal Center
Sun 12:35:14 AM 47.6333 -71.1000 65° Northeast 540 621 34,000  Level Montreal Center
Sun 12:36:14 AM 47.6833 -70.9000 70° East 540 621 34,000  Level Montreal Center
Sun 12:37:14 AM 47.7500 -70.7000 64° Northeast 540 621 34,000  Level Montreal Center
Sun 12:38:14 AM 47.8000 -70.4833 71° East 540 621 34,000  Level Montreal Center
Sun 12:39:14 AM 47.8667 -70.2833 64° Northeast 540 621 34,000  Level Montreal Center
Sun 12:40:14 AM 47.9167 -70.0667 71° East 540 621 34,000  Level Montreal Center
Sun 12:41:14 AM 47.9667 -69.8667 69° East 540 621 34,000  Level Montreal Center
Sun 12:42:14 AM 48.0500 -69.6500 60° Northeast 540 621 34,000  Level Montreal Center
Sun 12:43:14 AM 48.1000 -69.4500 69° East 540 621 34,000  Level Montreal Center
Sun 12:44:14 AM 48.1500 -69.2333 71° East 540 621 34,000  Level Montreal Center
Sun 12:45:14 AM 48.2167 -69.0500 61° Northeast 530 610 34,000  Level Montreal Center
Sun 12:46:14 AM 48.2833 -68.8333 65° Northeast 530 610 34,000  Level Montreal Center
Sun 12:47:14 AM 48.3333 -68.6500 68° East 520 598 34,000  Level Montreal Center
Sun 12:48:14 AM 48.4000 -68.4333 65° Northeast 520 598 34,000  Level Montreal Center
Sun 12:49:14 AM 48.4667 -68.2500 61° Northeast 520 598 34,000  Level Montreal Center
Sun 12:50:14 AM 48.5333 -68.0333 65° Northeast 520 598 34,000  Level Montreal Center
Sun 12:51:14 AM 48.6000 -67.8500 61° Northeast 530 610 34,000  Level Montreal Center
Sun 12:52:14 AM 48.6500 -67.6667 68° East 530 610 34,000  Level Montreal Center
Sun 12:53:14 AM 48.7167 -67.4500 65° Northeast 520 598 34,000  Level Montreal Center
Sun 12:54:14 AM 48.7833 -67.2500 63° Northeast 520 598 34,000  Level Montreal Center
Sun 12:55:14 AM 48.8500 -67.0333 65° Northeast 520 598 34,000  Level Montreal Center
Sun 12:56:14 AM 48.9167 -66.8500 61° Northeast 520 598 34,000  Level Montreal Center
Sun 12:57:14 AM 48.9667 -66.6500 69° East 520 598 34,000  Level Montreal Center
Sun 12:58:14 AM 49.0333 -66.4333 65° Northeast 520 598 34,000  Level Montreal Center
Sun 12:59:14 AM 49.1000 -66.2500 61° Northeast 520 598 34,000  Level Montreal Center
Sun 01:00:14 AM 49.1500 -66.0500 69° East 520 598 34,000  Level Montreal Center
Sun 01:01:14 AM 49.2167 -65.8333 65° Northeast 520 598 34,000  Level Montreal Center
Sun 01:02:14 AM 49.2667 -65.6333 69° East 520 598 34,000  Level Montreal Center
Sun 01:03:14 AM 49.3333 -65.4167 65° Northeast 520 598 34,000  Level Montreal Center
Sun 01:04:14 AM 49.3667 -65.2167 76° East 520 598 34,000  Level Montreal Center
Sun 01:05:14 AM 49.4333 -65.0000 65° Northeast 520 598 34,000  Level Montreal Center
Sun 01:06:14 AM 49.5000 -64.8000 63° Northeast 520 598 34,000  Level Montreal Center
Sun 01:07:14 AM 49.5500 -64.6000 69° East 520 598 34,000  Level Montreal Center
Sun 01:08:14 AM 49.6167 -64.4167 61° Northeast 520 598 34,000  Level Montreal Center
Sun 01:09:14 AM 49.6667 -64.2167 69° East 520 598 34,000  Level Montreal Center
Sun 01:10:14 AM 49.7167 -63.9833 72° East 520 598 34,000  Level Montreal Center
Sun 01:11:14 AM 49.7667 -63.8000 67° East 520 598 34,000  Level Montreal Center
Sun 01:12:14 AM 49.8333 -63.5667 66° East 530 610 34,000  Level Montreal Center
Sun 01:13:14 AM 49.9000 -63.3667 63° Northeast 530 610 34,000  Level Montreal Center
Sun 01:14:14 AM 49.9333 -63.1333 77° East 530 610 34,000  Level Montreal Center
Sun 01:15:14 AM 50.0000 -62.9333 63° Northeast 520 598 34,000  Level Montreal Center
Sun 01:16:14 AM 50.0500 -62.7167 70° East 520 598 34,000  Level Montreal Center
Sun 01:17:14 AM 50.1000 -62.5167 69° East 530 610 34,000  Level Montreal Center
Sun 01:18:14 AM 50.1667 -62.3167 62° Northeast 520 598 34,000  Level Montreal Center
Sun 01:19:14 AM 50.2000 -62.0833 77° East 530 610 34,000  Level Montreal Center
Sun 01:20:14 AM 50.2667 -61.8833 62° Northeast 520 598 34,000  Level Montreal Center
Sun 01:21:14 AM 50.3167 -61.6500 71° East 520 598 34,000  Level Montreal Center
Sun 01:22:14 AM 50.3667 -61.4500 69° East 520 598 34,000  Level Montreal Center
Sun 01:23:14 AM 50.4167 -61.2333 70° East 510 587 34,000  Level Montreal Center
Sun 01:24:14 AM 50.4667 -61.0333 68° East 520 598 34,000  Level Montreal Center
Sun 01:25:14 AM 50.5167 -60.8000 71° East 520 598 34,000  Level Montreal Center
Sun 01:26:14 AM 50.5667 -60.6000 68° East 520 598 34,000  Level Montreal Center
Sun 01:27:14 AM 50.6000 -60.3667 77° East 520 598 34,000  Level Montreal Center
Sun 01:28:14 AM 50.6667 -60.1667 62° Northeast 520 598 34,000  Level Montreal Center
Sun 01:29:14 AM 50.7000 -59.9667 75° East 520 598 34,000  Level Montreal Center
Sun 01:30:14 AM 50.7500 -59.7333 71° East 520 598 34,000  Level Montreal Center
Sun 01:31:14 AM 50.8167 -59.5167 64° Northeast 530 610 34,000  Level Montreal Center
Sun 01:32:14 AM 50.8667 -59.2833 71° East 530 610 34,000  Level Montreal Center
Sun 01:33:14 AM 50.9000 -59.0667 76° East 530 610 34,000  Level Montreal Center
Sun 01:34:14 AM 50.9500 -58.8667 68° East 530 610 34,000  Level Montreal Center
Sun 01:35:14 AM 50.9833 -58.6333 77° East 530 610 34,000  Level Montreal Center
Sun 01:36:14 AM 51.0333 -58.4167 70° East 530 610 34,000  Level Montreal Center
Sun 01:37:14 AM 51.0833 -58.1833 71° East 530 610 34,000  Level Montreal Center
Sun 01:38:14 AM 51.1333 -57.9500 71° East 530 610 34,000  Level Montreal Center
Sun 01:39:14 AM 51.1667 -57.7333 76° East 530 610 34,000  Level Montreal Center
Sun 01:40:14 AM 51.2167 -57.5167 70° East 530 610 34,000  Level Montreal Center
Sun 01:41:14 AM 51.2667 -57.2833 71° East 530 610 34,000  Level Montreal Center
Sun 01:42:14 AM 51.3167 -57.0667 70° East 530 610 34,000  Level Montreal Center
Sun 01:43:14 AM 51.3667 -56.8333 71° East 530 610 34,000  Level Montreal Center
Sun 01:44:14 AM 51.4000 -56.6167 76° East 540 621 34,000  Level Montreal Center
Sun 01:45:14 AM 51.4500 -56.3833 71° East 540 621 34,000  Level Montreal Center
Sun 01:46:14 AM 51.4833 -56.1333 78° East 540 621 34,000  Level Montreal Center
Sun 01:47:19 AM 51.5333 -55.9500 66° East 540 621 34,000  Level Gander Center
Sun 01:48:19 AM 51.5833 -55.7167 71° East 540 621 34,000  Level Gander Center
Sun 01:49:19 AM 51.6167 -55.4833 77° East 540 621 34,000  Level Gander Center
Sun 01:50:19 AM 51.6667 -55.2333 72° East 550 633 34,000  Level Gander Center
Sun 01:51:19 AM 51.7167 -55.0167 69° East 540 621 34,000  Level Gander Center
Sun 01:52:19 AM 51.7500 -54.7667 78° East 550 633 34,000  Level Gander Center
Sun 01:53:19 AM 51.7833 -54.5167 78° East 550 633 34,000  Level Gander Center
Sun 01:54:19 AM 51.8333 -54.3000 69° East 550 633 34,000  Level Gander Center
Sun 01:55:19 AM 51.9000 -54.0667 65° Northeast 550 633 34,000  Level Gander Center
Sun 01:56:19 AM 51.9833 -53.8667 56° Northeast 540 621 34,000  Level Gander Center
Sun 01:57:19 AM 52.0333 -53.6333 71° East 550 633 34,000  Level Gander Center
Sun 01:58:19 AM 52.1000 -53.4000 65° Northeast 550 633 34,000  Level Gander Center
Sun 01:59:19 AM 52.1667 -53.1667 65° Northeast 550 633 34,000  Level Gander Center
Sun 02:00:19 AM 52.2167 -52.9500 69° East 550 633 34,000  Level Gander Center
Sun 02:01:19 AM 52.2667 -52.7167 71° East 550 633 34,000  Level Gander Center
Sun 02:02:19 AM 52.3333 -52.4833 65° Northeast 550 633 34,000  Level Gander Center
Sun 02:03:19 AM 52.3833 -52.2500 71° East 560 644 34,000  Level Gander Center
Sun 02:04:19 AM 52.4500 -52.0167 65° Northeast 550 633 34,000  Level Gander Center
Sun 02:05:19 AM 52.5167 -51.7833 65° Northeast 550 633 34,000  Level Gander Center
Sun 02:06:28 AM 52.5833 -51.5167 68° East 550 633 34,000  Level Gander Center
Sun 02:07:19 AM 52.6333 -51.3167 68° East 550 633 34,000  Level Gander Center
Sun 02:08:19 AM 52.7000 -51.0833 65° Northeast 560 644 34,000  Level Gander Center
Sun 02:09:19 AM 52.7333 -50.8500 77° East 570 656 34,000  Level Gander Center
Sun 02:10:19 AM 52.7833 -50.6167 70° East 550 633 34,000  Level Gander Center
Sun 02:11:19 AM 52.8500 -50.3667 66° East 550 633 34,000  Level Gander Center
Sun 02:12:19 AM 52.9333 -50.1333 59° Northeast 550 633 34,000 Level Gander Center
Sun 02:39:00 AM 54.3073 -44.0769 72° East  Level FlightAware Approximate
Sun 02:40:00 AM 54.3517 -43.8418 72° East  Level FlightAware Approximate
Sun 02:41:00 AM 54.3956 -43.6063 72° East  Level FlightAware Approximate
Sun 02:42:00 AM 54.4390 -43.3702 72° East  Level FlightAware Approximate
Sun 02:43:00 AM 54.4820 -43.1337 73° East  Level FlightAware Approximate
Sun 02:44:00 AM 54.5245 -42.8966 73° East  Level FlightAware Approximate
Sun 02:45:00 AM 54.5665 -42.6591 73° East  Level FlightAware Approximate
Sun 02:46:00 AM 54.6081 -42.4211 73° East  Level FlightAware Approximate
Sun 02:47:00 AM 54.6492 -42.1826 73° East  Level FlightAware Approximate
Sun 02:48:00 AM 54.6898 -41.9436 74° East  Level FlightAware Approximate
Sun 02:49:00 AM 54.7300 -41.7041 74° East  Level FlightAware Approximate
Sun 02:50:00 AM 54.7696 -41.4642 74° East  Level FlightAware Approximate
Sun 02:51:00 AM 54.8089 -41.2238 74° East  Level FlightAware Approximate
Sun 02:52:00 AM 54.8476 -40.9829 74° East  Level FlightAware Approximate
Sun 02:53:00 AM 54.8859 -40.7416 74° East  Level FlightAware Approximate
Sun 02:54:00 AM 54.9236 -40.4998 75° East  Level FlightAware Approximate
Sun 02:55:00 AM 54.9609 -40.2575 75° East  Level FlightAware Approximate
Sun 02:56:00 AM 54.9978 -40.0149 75° East  Level FlightAware Approximate
Sun 02:57:00 AM 55.0094 -39.7648 86° East  Level FlightAware Approximate
Sun 02:58:00 AM 55.0190 -39.5141 86° East  Level FlightAware Approximate
Sun 02:59:00 AM 55.0280 -39.2633 86° East  Level FlightAware Approximate
Sun 03:00:00 AM 55.0366 -39.0124 87° East  Level FlightAware Approximate
Sun 03:01:00 AM 55.0446 -38.7613 87° East  Level FlightAware Approximate
Sun 03:02:00 AM 55.0521 -38.5102 87° East  Level FlightAware Approximate
Sun 03:03:00 AM 55.0590 -38.2590 87° East  Level FlightAware Approximate
Sun 03:04:00 AM 55.0655 -38.0077 87° East  Level FlightAware Approximate
Sun 03:05:00 AM 55.0714 -37.7564 88° East  Level FlightAware Approximate
Sun 03:06:00 AM 55.0769 -37.5049 88° East  Level FlightAware Approximate
Sun 03:07:00 AM 55.0818 -37.2534 88° East  Level FlightAware Approximate
Sun 03:08:00 AM 55.0862 -37.0019 88° East  Level FlightAware Approximate
Sun 03:09:00 AM 55.0900 -36.7503 88° East  Level FlightAware Approximate
Sun 03:10:00 AM 55.0934 -36.4986 89° East  Level FlightAware Approximate
Sun 03:11:00 AM 55.0962 -36.2469 89° East  Level FlightAware Approximate
Sun 03:12:00 AM 55.0985 -35.9952 89° East  Level FlightAware Approximate
Sun 03:13:00 AM 55.1003 -35.7434 89° East  Level FlightAware Approximate
Sun 03:14:00 AM 55.1016 -35.4916 89° East  Level FlightAware Approximate
Sun 03:15:00 AM 55.1023 -35.2398 90° East  Level FlightAware Approximate
Sun 03:16:00 AM 55.1026 -34.9881 90° East  Level FlightAware Approximate
Sun 03:17:00 AM 55.1023 -34.7363 90° East  Level FlightAware Approximate
Sun 03:18:00 AM 55.1015 -34.4845 90° East  Level FlightAware Approximate
Sun 03:19:00 AM 55.1002 -34.2327 90° East  Level FlightAware Approximate
Sun 03:20:00 AM 55.0983 -33.9809 91° East  Level FlightAware Approximate
Sun 03:21:00 AM 55.0960 -33.7292 91° East  Level FlightAware Approximate
Sun 03:22:00 AM 55.0931 -33.4775 91° East  Level FlightAware Approximate
Sun 03:23:00 AM 55.0897 -33.2259 91° East  Level FlightAware Approximate
Sun 03:24:00 AM 55.0858 -32.9743 91° East  Level FlightAware Approximate
Sun 03:25:00 AM 55.0813 -32.7227 92° East  Level FlightAware Approximate
Sun 03:26:00 AM 55.0764 -32.4712 92° East  Level FlightAware Approximate
Sun 03:27:00 AM 55.0709 -32.2198 92° East  Level FlightAware Approximate
Sun 03:28:00 AM 55.0649 -31.9684 92° East  Level FlightAware Approximate
Sun 03:29:00 AM 55.0584 -31.7171 92° East  Level FlightAware Approximate
Sun 03:30:00 AM 55.0514 -31.4659 93° East  Level FlightAware Approximate
Sun 03:31:00 AM 55.0438 -31.2148 93° East  Level FlightAware Approximate
Sun 03:32:00 AM 55.0358 -30.9638 93° East  Level FlightAware Approximate
Sun 03:33:00 AM 55.0272 -30.7129 93° East  Level FlightAware Approximate
Sun 03:34:00 AM 55.0181 -30.4621 94° East  Level FlightAware Approximate
Sun 03:35:00 AM 55.0085 -30.2115 94° East  Level FlightAware Approximate
Sun 03:36:00 AM 55.0016 -29.9609 86° East  Level FlightAware Approximate
Sun 03:37:00 AM 55.0116 -29.7103 86° East  Level FlightAware Approximate
Sun 03:38:00 AM 55.0210 -29.4596 86° East  Level FlightAware Approximate
Sun 03:39:00 AM 55.0299 -29.2088 86° East  Level FlightAware Approximate
Sun 03:40:00 AM 55.0383 -28.9578 87° East  Level FlightAware Approximate
Sun 03:41:00 AM 55.0462 -28.7068 87° East  Level FlightAware Approximate
Sun 03:42:00 AM 55.0536 -28.4557 87° East  Level FlightAware Approximate
Sun 03:43:00 AM 55.0605 -28.2044 87° East  Level FlightAware Approximate
Sun 03:44:00 AM 55.0668 -27.9531 87° East  Level FlightAware Approximate
Sun 03:45:00 AM 55.0727 -27.7017 88° East  Level FlightAware Approximate
Sun 03:46:00 AM 55.0780 -27.4503 88° East  Level FlightAware Approximate
Sun 03:47:00 AM 55.0828 -27.1988 88° East  Level FlightAware Approximate
Sun 03:48:00 AM 55.0870 -26.9472 88° East  Level FlightAware Approximate
Sun 03:49:00 AM 55.0908 -26.6956 88° East  Level FlightAware Approximate
Sun 03:50:00 AM 55.0940 -26.4439 89° East  Level FlightAware Approximate
Sun 03:51:00 AM 55.0967 -26.1922 89° East  Level FlightAware Approximate
Sun 03:52:00 AM 55.0989 -25.9405 89° East  Level FlightAware Approximate
Sun 03:53:00 AM 55.1006 -25.6887 89° East  Level FlightAware Approximate
Sun 03:54:00 AM 55.1018 -25.4369 89° East  Level FlightAware Approximate
Sun 03:55:00 AM 55.1024 -25.1852 90° East  Level FlightAware Approximate
Sun 03:56:00 AM 55.1026 -24.9333 90° East  Level FlightAware Approximate
Sun 03:57:00 AM 55.1021 -24.6816 90° East  Level FlightAware Approximate
Sun 03:58:00 AM 55.1012 -24.4298 90° East  Level FlightAware Approximate
Sun 03:59:00 AM 55.0998 -24.1780 90° East  Level FlightAware Approximate
Sun 04:00:00 AM 55.0979 -23.9263 91° East  Level FlightAware Approximate
Sun 04:01:00 AM 55.0954 -23.6745 91° East  Level FlightAware Approximate
Sun 04:02:00 AM 55.0924 -23.4228 91° East  Level FlightAware Approximate
Sun 04:03:00 AM 55.0889 -23.1712 91° East  Level FlightAware Approximate
Sun 04:04:00 AM 55.0848 -22.9196 91° East  Level FlightAware Approximate
Sun 04:05:00 AM 55.0803 -22.6681 92° East  Level FlightAware Approximate
Sun 04:06:00 AM 55.0752 -22.4166 92° East  Level FlightAware Approximate
Sun 04:07:00 AM 55.0696 -22.1652 92° East  Level FlightAware Approximate
Sun 04:08:00 AM 55.0635 -21.9138 92° East  Level FlightAware Approximate
Sun 04:09:00 AM 55.0569 -21.6626 93° East  Level FlightAware Approximate
Sun 04:10:00 AM 55.0498 -21.4114 93° East  Level FlightAware Approximate
Sun 04:11:00 AM 55.0421 -21.1603 93° East  Level FlightAware Approximate
Sun 04:12:00 AM 55.0340 -20.9093 93° East  Level FlightAware Approximate
Sun 04:13:00 AM 55.0253 -20.6584 93° East  Level FlightAware Approximate
Sun 04:14:00 AM 55.0161 -20.4077 94° East  Level FlightAware Approximate
Sun 04:15:00 AM 55.0064 -20.1570 94° East  Level FlightAware Approximate
Sun 04:16:00 AM 54.9888 -19.9083 102° East  Level FlightAware Approximate
Sun 04:17:00 AM 54.9584 -19.6630 102° East  Level FlightAware Approximate
Sun 04:18:00 AM 54.9274 -19.4180 102° East  Level FlightAware Approximate
Sun 04:19:00 AM 54.8960 -19.1735 102° East  Level FlightAware Approximate
Sun 04:20:00 AM 54.8642 -18.9293 103° East  Level FlightAware Approximate
Sun 04:21:00 AM 54.8318 -18.6855 103° East  Level FlightAware Approximate
Sun 04:22:00 AM 54.7989 -18.4421 103° East  Level FlightAware Approximate
Sun 04:23:00 AM 54.7655 -18.1991 103° East  Level FlightAware Approximate
Sun 04:24:00 AM 54.7317 -17.9565 103° East  Level FlightAware Approximate
Sun 04:25:00 AM 54.6974 -17.7143 104° East  Level FlightAware Approximate
Sun 04:26:00 AM 54.6626 -17.4725 104° East  Level FlightAware Approximate
Sun 04:27:00 AM 54.6273 -17.2311 104° East  Level FlightAware Approximate
Sun 04:28:00 AM 54.5915 -16.9902 104° East  Level FlightAware Approximate
Sun 04:29:00 AM 54.5553 -16.7496 104° East  Level FlightAware Approximate
Sun 04:30:00 AM 54.5186 -16.5096 105° East  Level FlightAware Approximate
Sun 04:31:00 AM 54.4813 -16.2699 105° East  Level FlightAware Approximate
Sun 04:32:00 AM 54.4437 -16.0307 105° East  Level FlightAware Approximate
Sun 04:33:00 AM 54.4055 -15.7919 105° East  Level FlightAware Approximate
Sun 04:34:00 AM 54.3669 -15.5536 105° East  Level FlightAware Approximate
Sun 04:35:00 AM 54.3279 -15.3157 106° East  Level FlightAware Approximate
Sun 04:36:00 AM 54.2883 -15.0783 106° East  Level FlightAware Approximate
Sun 04:37:00 AM 54.2483 -14.8413 106° East  Level FlightAware Approximate
Sun 04:38:00 AM 54.2078 -14.6048 106° East  Level FlightAware Approximate
Sun 04:39:00 AM 54.1669 -14.3687 106° East  Level FlightAware Approximate
Sun 04:40:00 AM 54.1255 -14.1332 107° East  Level FlightAware Approximate
Sun 04:41:00 AM 54.0879 -13.8960 105° East  Level FlightAware Approximate
Sun 04:42:00 AM 54.0463 -13.6610 107° East  Level FlightAware Approximate
Sun 04:43:00 AM 54.0037 -13.4268 107° East  Level FlightAware Approximate
Sun 04:44:00 AM 53.9606 -13.1930 107° East  Level FlightAware Approximate
Sun 04:44:16 AM 53.8167 -10.5666 116° Southeast 569 655 35,000  Level FlightAware ADS-B (KHQM)
Sun 04:45:00 AM 53.9170 -12.9598 108° East  Level FlightAware Approximate
Sun 04:45:09 AM 53.7555 -10.3586 117° Southeast 565 650 35,000  Level FlightAware ADS-B (KHQM)
Sun 04:45:48 AM 53.7107 -10.2078 117° Southeast 564 649 35,000  Level FlightAware ADS-B (KHQM)
Sun 04:46:19 AM 53.6873 -10.1296 116° Southeast 560 644 35,000  Level FlightAware ADS-B (KHQM)
Sun 04:47:25 AM 53.5969 -9.8292 117° Southeast 561 646 35,000  Level FlightAware ADS-B (KHQM)
Sun 04:48:35 AM 53.5142 -9.5575 117° Southeast 560 644 35,000  Level FlightAware ADS-B (KHQM)
Sun 04:49:05 AM 53.4789 -9.4426 117° Southeast 560 644 35,000  Level FlightAware ADS-B (KHQM)
Sun 04:49:43 AM 53.4652 -9.3980 117° Southeast 559 643 35,000  Level FlightAware ADS-B (KHQM)
Sun 04:50:20 AM 53.3916 -9.1603 118° Southeast 560 644 35,000  Level FlightAware ADS-B (KHQM)
Sun 04:50:54 AM 53.3481 -9.0210 118° Southeast 560 644 35,000  Level FlightAware ADS-B (KHQM)
Sun 04:51:34 AM 53.3005 -8.8698 118° Southeast 559 643 35,000  Level FlightAware ADS-B (KHQM)
Sun 04:52:17 AM 53.2485 -8.7052 118° Southeast 560 644 35,000  Level FlightAware ADS-B (EIWF / WAT)
Sun 04:52:52 AM 53.2066 -8.5737 118° Southeast 560 644 35,000  Level FlightAware ADS-B (KHQM)
Sun 04:53:24 AM 53.1682 -8.4538 118° Southeast 560 644 35,000  Level FlightAware ADS-B (EGAA / BFS)
Sun 04:53:37 AM 53.1558 -8.4150 118° Southeast 561 646 35,000  Level FlightAware ADS-B (EGAA / BFS)
Sun 04:53:45 AM 53.1417 -8.3710 117° Southeast 557 641 35,000  Level FlightAware ADS-B (KLEX)
Sun 04:54:26 AM 53.0929 -8.2198 118° Southeast 558 642 35,000  Level FlightAware ADS-B (KHQM)
Sun 04:54:58 AM 53.0533 -8.0975 118° Southeast 555 639 35,000  Level FlightAware ADS-B (EIWF / WAT)
Sun 04:55:32 AM 53.0112 -7.9688 118° Southeast 552 635 35,000  Level FlightAware UK
Sun 04:55:38 AM 53.0041 -7.9469 119° Southeast 553 636 35,000  Level FlightAware ADS-B (EIWF / WAT)
Sun 04:55:41 AM 53.0012 -7.9380 118° Southeast 548 631 35,000  Level FlightAware ADS-B (KLEX)
Sun 04:56:15 AM 52.9600 -7.8123 119° Southeast 549 632 35,000  Level FlightAware ADS-B
Sun 04:56:55 AM 52.9221 -7.6976 119° Southeast 547 629 35,000  Level FlightAware ADS-B
Sun 04:57:32 AM 52.8659 -7.5280 119° Southeast 546 628 35,000  Level FlightAware UK
Sun 04:57:46 AM 52.9221 -7.6976 119° Southeast 546 628 35,000  Level FlightAware ADS-B
Sun 04:58:32 AM 52.7930 -7.3101 119° Southeast 540 621 35,000  Level FlightAware UK
Sun 04:59:02 AM 52.7568 -7.2024 119° Southeast 536 617 35,000  Level FlightAware UK
Sun 04:59:32 AM 52.7207 -7.0956 119° Southeast 532 612 35,000  Level FlightAware UK
Sun 05:00:02 AM 52.6848 -6.9899 119° Southeast 530 610 35,000  Level FlightAware UK
Sun 05:00:22 AM 52.6757 -6.9633 119° Southeast 530 610 35,000  Level FlightAware ADS-B
Sun 05:01:02 AM 52.6130 -6.7801 119° Southeast 526 605 35,000  Level FlightAware UK
Sun 05:01:20 AM 52.5928 -6.7210 119° Southeast 527 606 35,000  Level FlightAware ADS-B (EIWF / WAT)
Sun 05:01:52 AM 52.5534 -6.6071 120° Southeast 528 608 35,000  Level FlightAware ADS-B (EGAA / BFS)
Sun 05:02:34 AM 52.5089 -6.4784 120° Southeast 528 608 35,000  Level FlightAware ADS-B
Sun 05:03:04 AM 52.5515 -6.6015 120° Southeast 529 609 35,000  Level FlightAware ADS-B (EIWF / WAT)
Sun 05:04:02 AM 52.3959 -6.1555 120° Southeast 530 610 35,000  Level FlightAware UK
Sun 05:04:23 AM 52.3711 -6.0848 120° Southeast 531 611 35,000  Level FlightAware ADS-B (EGCW)
Sun 05:05:03 AM 52.3240 -5.9519 120° Southeast 531 611 35,000  Level FlightAware ADS-B
Sun 05:05:41 AM 52.2758 -5.8164 120° Southeast 526 605 35,000  Level FlightAware ADS-B (EGCW)
Sun 05:05:59 AM 52.2534 -5.7536 119° Southeast 520 598 35,000  Level FlightAware ADS-B (EGYM / MRH)
Sun 05:06:29 AM 52.2162 -5.6496 120° Southeast 519 597 35,000  Level FlightAware ADS-B (EGYM / MRH)
Sun 05:07:00 AM 52.1797 -5.5480 120° Southeast 519 597 35,000  Level FlightAware ADS-B (EGYM / MRH)
Sun 05:07:09 AM 52.1841 -5.5602 121° Southeast 522 601 35,000  Level FlightAware ADS-B (EGDX / DGX)
Sun 05:07:27 AM 52.1660 -5.5101 121° Southeast 522 601 35,000  Level FlightAware ADS-B (EGAA / BFS)
Sun 05:07:52 AM 52.1171 -5.3752 121° Southeast 521 600 35,000  Level FlightAware ADS-B (EGCW)
Sun 05:08:01 AM 52.1051 -5.3422 120° Southeast 517 595 35,000  Level FlightAware ADS-B (EGYM / MRH)
Sun 05:08:11 AM 52.0924 -5.3073 120° Southeast 517 595 35,000  Level FlightAware ADS-B (EGYM / MRH)
Sun 05:08:21 AM 52.0799 -5.2730 120° Southeast 516 594 35,000  Level FlightAware ADS-B (EGYM / MRH)
Sun 05:08:31 AM 52.0680 -5.2402 120° Southeast 515 593 35,000  Level FlightAware ADS-B (EGYM / MRH)
Sun 05:08:53 AM 52.0405 -5.1649 120° Southeast 513 590 35,000  Level FlightAware ADS-B (EGYM / MRH)
Sun 05:09:13 AM 52.0261 -5.1258 118° Southeast 514 592 35,000  Level FlightAware ADS-B (EGDX / DGX)
Sun 05:09:23 AM 52.0078 -5.0677 113° Southeast 513 590 35,000  Level FlightAware ADS-B (EGCW)
Sun 05:09:44 AM 51.9896 -4.9888 108° East 512 589 35,000  Level FlightAware ADS-B (EGYM / MRH)
Sun 05:09:49 AM 51.9913 -4.9967 107° East 512 589 35,000  Level FlightAware ADS-B (EGCW)
Sun 05:10:03 AM 51.9770 -4.9174 103° East 510 587 35,000  Level FlightAware ADS-B (EGYM / MRH)
Sun 05:10:11 AM 51.9732 -4.8906 101° East 510 587 35,000  Level FlightAware ADS-B (EGOD)
Sun 05:10:18 AM 51.9698 -4.8628 101° East 510 587 35,000  Level FlightAware ADS-B
Sun 05:10:23 AM 51.9685 -4.8516 101° East 511 588 35,000  Level FlightAware ADS-B (EGOD)
Sun 05:10:34 AM 51.9656 -4.8207 97° East 508 585 35,000  Level FlightAware ADS-B (EGCW)
Sun 05:10:38 AM 51.9635 -4.7951 97° East 508 585 35,000  Level FlightAware ADS-B (EGOD)
Sun 05:11:10 AM 51.9531 -4.6716 98° East 510 587 35,000  Level FlightAware ADS-B (EGCW)
Sun 05:11:41 AM 51.9434 -4.5577 98° East 510 587 35,000  Level FlightAware ADS-B (EGCW)
Sun 05:12:01 AM 51.9363 -4.4747 97° East 510 587 35,000  Level FlightAware ADS-B (EGYM / MRH)
Sun 05:12:11 AM 51.9331 -4.4384 97° East 511 588 35,000  Level FlightAware ADS-B (EGYM / MRH)
Sun 05:12:20 AM 51.9300 -4.4029 97° East 511 588 35,000  Level FlightAware ADS-B (EGYM / MRH)
Sun 05:12:24 AM 51.9289 -4.3892 97° East 511 588 35,000  Level FlightAware ADS-B (EGOD)
Sun 05:12:30 AM 51.9268 -4.3657 97° East 511 588 35,000  Level FlightAware ADS-B (EGYM / MRH)
Sun 05:12:35 AM 51.9255 -4.3498 98° East 512 589 35,000  Level FlightAware ADS-B (KANK)
Sun 05:12:39 AM 51.9239 -4.3317 101° East 511 588 35,000  Level FlightAware ADS-B (EGDM)
Sun 05:12:51 AM 51.9200 -4.2878 97° East 510 587 35,000  Level FlightAware ADS-B (EGYM / MRH)
Sun 05:12:58 AM 51.9177 -4.2621 97° East 510 587 35,000  Level FlightAware ADS-B (EGOD)
Sun 05:13:28 AM 51.9076 -4.1468 97° East 508 585 35,000  Level FlightAware ADS-B (EGYM / MRH)
Sun 05:13:32 AM 51.9062 -4.1317 97° East 508 585 35,000  Level FlightAware ADS-B (EGYM / MRH)
Sun 05:13:42 AM 51.9028 -4.0935 97° East 507 583 35,000  Level FlightAware ADS-B (EGYM / MRH)
Sun 05:13:48 AM 51.9010 -4.0732 97° East 507 583 35,000  Level FlightAware ADS-B (EGYM / MRH)
Sun 05:13:59 AM 51.8974 -4.0327 98° East 507 583 35,000  Level FlightAware ADS-B (KANK)
Sun 05:14:18 AM 51.8908 -3.9601 97° East 504 580 35,000  Level FlightAware ADS-B (EGYM / MRH)
Sun 05:14:53 AM 51.8806 -3.8472 98° East 502 578 35,000  Level FlightAware ADS-B (EGCW)
Sun 05:15:06 AM 51.8746 -3.7820 99° East 502 578 35,000  Level FlightAware ADS-B (EGCW)
Sun 05:15:09 AM 51.8736 -3.7709 98° East 500 575 35,000  Level FlightAware ADS-B (EGYM / MRH)
Sun 05:15:12 AM 51.8728 -3.7627 99° East 502 578 35,000  Level FlightAware ADS-B (KANK)
Sun 05:15:19 AM 51.8700 -3.7325 98° East 500 575 35,000  Level FlightAware ADS-B (EGYM / MRH)
Sun 05:15:30 AM 51.8664 -3.6926 98° East 499 574 35,000  Level FlightAware ADS-B (EGYM / MRH)
Sun 05:15:35 AM 51.8648 -3.6756 98° East 500 575 35,000  Level FlightAware ADS-B (EGYM / MRH)
Sun 05:15:40 AM 51.8629 -3.6557 98° East 499 574 35,000  Level FlightAware ADS-B (EGYM / MRH)
Sun 05:15:50 AM 51.8595 -3.6181 98° East 499 574 35,000  Level FlightAware ADS-B (EGYM / MRH)
Sun 05:16:00 AM 51.8559 -3.5804 98° East 501 577 35,000  Level FlightAware ADS-B (EGYM / MRH)
Sun 05:16:13 AM 51.8516 -3.5337 99° East 503 579 35,000  Level FlightAware ADS-B (EGDX / DGX)
Sun 05:16:34 AM 51.8450 -3.4640 99° East 504 580 35,000  Level FlightAware ADS-B
Sun 05:16:40 AM 51.8422 -3.4343 98° East 503 579 35,000  Level FlightAware ADS-B (EGYM / MRH)
Sun 05:16:51 AM 51.8383 -3.3935 99° East 504 580 35,000  Level FlightAware ADS-B (EGCW)
Sun 05:16:54 AM 51.8370 -3.3801 98° East 503 579 35,000  Level FlightAware ADS-B (EGYM / MRH)
Sun 05:17:04 AM 51.8339 -3.3475 99° East 504 580 35,000  Level FlightAware ADS-B (EGLF / FAB)
Sun 05:17:14 AM 51.8300 -3.3068 99° East 502 578 35,000  Level FlightAware ADS-B
Sun 05:17:26 AM 51.8261 -3.2661 98° East 500 575 35,000  Level FlightAware ADS-B (EGHH / BOH)
Sun 05:17:30 AM 51.8245 -3.2500 98° East 500 575 35,000  Level FlightAware ADS-B
Sun 05:17:38 AM 51.8218 -3.2219 98° East 500 575 35,000  Level FlightAware ADS-B (EGHH / BOH)
Sun 05:17:51 AM 51.8177 -3.1792 99° East 500 575 35,000  Level FlightAware ADS-B (EGLF / FAB)
Sun 05:18:01 AM 51.8134 -3.1351 98° East 499 574 35,000  Level FlightAware ADS-B (EGYM / MRH)
Sun 05:18:15 AM 51.8084 -3.0844 98° East 498 573 35,000  Level FlightAware ADS-B (EGHH / BOH)
Sun 05:18:35 AM 51.8010 -3.0097 98° East 496 571 35,000  Level FlightAware ADS-B (EGYM / MRH)
Sun 05:18:43 AM 51.7983 -2.9826 98° East 496 571 35,000  Level FlightAware ADS-B (EGHH / BOH)
Sun 05:19:13 AM 51.7880 -2.8789 99° East 497 572 35,000  Level FlightAware ADS-B
Sun 05:19:44 AM 51.7768 -2.7679 99° East 497 572 35,000  Level FlightAware ADS-B
Sun 05:20:15 AM 51.7654 -2.6558 99° East 496 571 35,000  Level FlightAware ADS-B
Sun 05:20:45 AM 51.7538 -2.5422 100° East 496 571 35,000  Level FlightAware ADS-B
Sun 05:21:19 AM 51.7407 -2.4164 100° East 496 571 35,000  Level FlightAware ADS-B
Sun 05:21:51 AM 51.7283 -2.2980 100° East 495 570 35,000  Level FlightAware ADS-B (EGHA)
Sun 05:22:23 AM 51.7175 -2.1956 100° East 496 571 35,000  Level FlightAware ADS-B (EGCW)
Sun 05:22:53 AM 51.7041 -2.0707 100° East 495 570 35,000  Level FlightAware ADS-B (KANK)
Sun 05:23:24 AM 51.6921 -1.9593 100° East 493 567 35,000  Level FlightAware ADS-B (EGLC / LCY)
Sun 05:23:56 AM 51.6793 -1.8416 100° East 493 567 35,000  Level FlightAware ADS-B
Sun 05:24:26 AM 51.6678 -1.7370 100° East 494 568 35,000  Level FlightAware ADS-B (EGHA)
Sun 05:24:42 AM 51.6613 -1.6786 100° East 494 568 35,000  Level FlightAware ADS-B (EGLC / LCY)
Sun 05:25:01 AM 51.6536 -1.6087 99° East 491 565 35,000  Level FlightAware ADS-B
Sun 05:25:09 AM 51.6505 -1.5814 99° East 492 566 35,000  Level FlightAware ADS-B (EGHI / SOU)
Sun 05:25:19 AM 51.6464 -1.5446 99° East 492 566 35,000  Level FlightAware ADS-B
Sun 05:25:25 AM 51.6439 -1.5223 99° East 492 566 35,000  Level FlightAware ADS-B (EGHI / SOU)
Sun 05:25:31 AM 51.6415 -1.5015 99° East 492 566 35,000  Level FlightAware ADS-B
Sun 05:25:55 AM 51.6315 -1.4130 99° East 492 566 35,000  Level FlightAware ADS-B (EGHI / SOU)
Sun 05:26:02 AM 51.6293 -1.3936 100° East 492 566 35,000  Level FlightAware ADS-B (EGTC)
Sun 05:26:07 AM 51.6270 -1.3728 99° East 491 565 35,000  Level FlightAware ADS-B (EGLL / LHR)
Sun 05:26:13 AM 51.6257 -1.3613 100° East 492 566 35,000  Level FlightAware ADS-B (EGLL / LHR)
Sun 05:26:25 AM 51.6198 -1.3097 100° East 490 564 35,000  Level FlightAware ADS-B (EGHI / SOU)
Sun 05:26:34 AM 51.6167 -1.2824 100° East 491 565 35,000  Level FlightAware ADS-B (EGLC / LCY)
Sun 05:26:40 AM 51.6133 -1.2538 100° East 490 564 35,000  Level FlightAware ADS-B (EGHI / SOU)
Sun 05:26:54 AM 51.6075 -1.2030 101° East 491 565 35,000  Level FlightAware ADS-B (EGDX / DGX)
Sun 05:27:02 AM 51.6042 -1.1744 100° East 489 563 35,000  Level FlightAware ADS-B
Sun 05:27:11 AM 51.6007 -1.1437 100° East 489 563 35,000  Level FlightAware ADS-B (EGHI / SOU)
Sun 05:27:15 AM 51.5989 -1.1287 100° East 489 563 35,000  Level FlightAware ADS-B (KSCH)
Sun 05:27:27 AM 51.5939 -1.0859 100° East 488 562 35,000  Level FlightAware ADS-B (EGHI / SOU)
Sun 05:27:43 AM 51.5876 -1.0311 101° East 488 562 35,000  Level FlightAware ADS-B (EGLC / LCY)
Sun 05:27:48 AM 51.5863 -1.0197 101° East 488 562 35,000  Level FlightAware ADS-B
Sun 05:27:58 AM 51.5809 -0.9735 101° East 488 562 35,000  Level FlightAware ADS-B
Sun 05:28:01 AM 51.5798 -0.9643 100° East 486 559 35,000  Level FlightAware ADS-B
Sun 05:28:18 AM 51.5725 -0.9025 101° East 488 562 35,000  Level FlightAware ADS-B
Sun 05:28:25 AM 51.5722 -0.8997 101° East 488 562 35,000  Level FlightAware ADS-B
Sun 05:28:29 AM 51.5684 -0.8684 100° East 487 560 35,000  Level FlightAware ADS-B
Sun 05:28:38 AM 51.5647 -0.8365 100° East 486 559 35,000  Level FlightAware ADS-B (EGHH / BOH)
Sun 05:28:41 AM 51.5638 -0.8294 101° East 488 562 35,000  Level FlightAware ADS-B (EGLF / FAB)
Sun 05:28:48 AM 51.5599 -0.7961 101° East 488 562 35,000  Level FlightAware ADS-B
Sun 05:29:02 AM 51.5546 -0.7520 100° East 486 559 35,000  Level FlightAware ADS-B
Sun 05:29:16 AM 51.5482 -0.6981 100° East 487 560 35,000  Level FlightAware ADS-B
Sun 05:29:23 AM 51.5452 -0.6725 100° East 487 560 35,000  Level FlightAware ADS-B (KSCH)
Sun 05:29:36 AM 51.5401 -0.6307 101° East 488 562 35,000  Level FlightAware ADS-B
Sun 05:29:40 AM 51.5379 -0.6130 100° East 487 560 35,000  Level FlightAware ADS-B
Sun 05:29:56 AM 51.5312 -0.5570 101° East 488 562 35,000  Level FlightAware ADS-B
Sun 05:30:02 AM 51.5299 -0.5463 100° East 487 560 35,000  Level FlightAware ADS-B (EGHA)
Sun 05:30:12 AM 51.5241 -0.4989 100° East 486 559 35,000  Level FlightAware ADS-B (EGHI / SOU)
Sun 05:30:20 AM 51.5211 -0.4735 100° East 486 559 35,000  Level FlightAware ADS-B (EGHH / BOH)
Sun 05:30:31 AM 51.5162 -0.4338 101° East 487 560 35,000  Level FlightAware ADS-B (KANK)
Sun 05:30:43 AM 51.5110 -0.3914 101° East 487 560 35,000  Level FlightAware ADS-B (EGLC / LCY)
Sun 05:30:52 AM 51.5070 -0.3589 100° East 485 558 35,000  Level FlightAware ADS-B (EGHH / BOH)
Sun 05:30:56 AM 51.5052 -0.3441 100° East 485 558 35,000  Level FlightAware ADS-B (EGHI / SOU)
Sun 05:31:00 AM 51.5036 -0.3314 100° East 485 558 35,000  Level FlightAware ADS-B
Sun 05:31:31 AM 51.4898 -0.2202 101° East 484 557 35,000  Level FlightAware ADS-B
Sun 05:32:01 AM 51.4776 -0.1219 101° East 484 557 35,000  Level FlightAware ADS-B (EGLF / FAB)
Sun 05:32:34 AM 51.4624 -0.0006 101° East 485 558 35,000  Level FlightAware ADS-B (EGLC / LCY)
Sun 05:32:52 AM 51.4544 0.0627 102° East 486 559 35,000  Level FlightAware ADS-B
Sun 05:33:25 AM 51.4396 0.1787 102° East 486 559 35,000  Level FlightAware ADS-B (KANK)
Sun 05:34:03 AM 51.4223 0.3131 102° East 487 560 35,000  Level FlightAware ADS-B
Sun 05:34:38 AM 51.4063 0.4363 102° East 487 560 35,000  Level FlightAware ADS-B (EGLF / FAB)
Sun 05:35:14 AM 51.3938 0.5321 102° East 489 563 35,000  Level FlightAware ADS-B
Sun 05:35:56 AM 51.3700 0.7124 102° East 488 562 35,000  Level FlightAware ADS-B (EGLC / LCY)
Sun 05:36:27 AM 51.3585 0.7983 102° East 489 563 35,000  Level FlightAware ADS-B (EGLL / LHR)
Sun 05:37:06 AM 51.3400 0.9365 102° East 490 564 35,000  Level FlightAware ADS-B (EGLC / LCY)
Sun 05:37:33 AM 51.3237 1.0557 101° East 489 563 35,000  Level FlightAware ADS-B
Sun 05:37:38 AM 51.3218 1.0698 101° East 489 563 35,000  Level FlightAware ADS-B (KSCH)
Sun 05:38:10 AM 51.3066 1.1821 102° East 491 565 35,000  Level FlightAware ADS-B (EGLC / LCY)
Sun 05:38:20 AM 51.3023 1.2132 102° East 490 564 35,000  Level FlightAware ADS-B (EGLC / LCY)
Sun 05:38:34 AM 51.2950 1.2661 102° East 489 563 35,000  Level FlightAware ADS-B
Sun 05:38:38 AM 51.2928 1.2817 102° East 489 563 35,000  Level FlightAware ADS-B (EGHH / BOH)
Sun 05:39:10 AM 51.2770 1.3959 103° East 491 565 35,000  Level FlightAware ADS-B (EGLC / LCY)
Sun 05:39:41 AM 51.2624 1.5002 103° East 491 565 35,000  Level FlightAware ADS-B (EGLF / FAB)
Sun 05:39:44 AM 51.2608 1.5107 104° East 489 563 35,000  Level FlightAware ADS-B
Sun 05:40:05 AM 51.2544 1.5429 115° Southeast 487 560 35,000  Level FlightAware ADS-B (EGLC / LCY)
Sun 05:40:35 AM 51.2140 1.6807 116° Southeast 488 562 35,000  Level FlightAware ADS-B
Sun 05:41:08 AM 51.1831 1.7874 114° Southeast 488 562 35,000  Level FlightAware ADS-B (EGLC / LCY)
Sun 05:41:39 AM 51.1548 1.8905 113° Southeast 489 563 35,000  Level FlightAware ADS-B (LRBS / BBU)
Sun 05:42:13 AM 51.1822 1.7907 113° Southeast 489 563 35,000  Level FlightAware ADS-B
Sun 05:42:57 AM 51.1480 1.9156 116° Southeast 489 563 35,000  Level FlightAware ADS-B (EGLC / LCY)
Sun 05:44:01 AM 51.0202 2.3528 116° Southeast 488 562 35,000  Level FlightAware UK
Sun 05:44:37 AM 50.9853 2.4691 115° Southeast 488 562 35,000  Level FlightAware UK
Sun 05:45:19 AM 50.9451 2.6021 116° Southeast 488 562 35,000  Level FlightAware ADS-B (EGLF / FAB)
Sun 05:45:49 AM 50.9148 2.7017 116° Southeast 488 562 35,000  Level FlightAware ADS-B (EHGR / GLZ)
Sun 05:46:19 AM 50.8861 2.7955 116° Southeast 489 563 35,000  Level FlightAware ADS-B (EGLF / FAB)
Sun 05:46:50 AM 50.8551 2.8962 116° Southeast 490 564 35,000  Level FlightAware ADS-B
Sun 05:47:01 AM 50.8444 2.9309 115° Southeast 486 559 35,000  Level FlightAware ADS-B (EHGR / GLZ)
Sun 05:47:11 AM 50.8343 2.9636 115° Southeast 486 559 35,000  Level FlightAware ADS-B
Sun 05:47:29 AM 50.8162 3.0221 116° Southeast 491 565 35,000  Level FlightAware ADS-B
Sun 05:47:41 AM 50.8040 3.0612 115° Southeast 487 560 35,000  Level FlightAware ADS-B
Sun 05:48:14 AM 50.7729 3.1612 116° Southeast 491 565 35,000  Level FlightAware ADS-B (EGLF / FAB)
Sun 05:48:51 AM 50.7345 3.2836 116° Southeast 489 563 35,000  Level FlightAware ADS-B
Sun 05:49:24 AM 50.7014 3.3888 116° Southeast 490 564 35,000  Level FlightAware ADS-B (EHGR / GLZ)
Sun 05:49:57 AM 50.6678 3.4953 116° Southeast 489 563 35,000  Level FlightAware ADS-B
Sun 05:50:12 AM 50.6518 3.5460 115° Southeast 487 560 35,000  Level FlightAware ADS-B (YPPH / PER)
Sun 05:50:43 AM 50.6207 3.6442 115° Southeast 492 566 35,000  Level FlightAware UK
Sun 05:50:52 AM 50.6114 3.6733 116° Southeast 489 563 35,000  Level FlightAware ADS-B (EHGR / GLZ)
Sun 05:50:57 AM 50.6071 3.6867 117° Southeast 493 567 35,000  Level FlightAware ADS-B (EGLF / FAB)
Sun 05:51:31 AM 50.5730 3.7933 117° Southeast 493 567 35,000  Level FlightAware ADS-B (EGLF / FAB)
Sun 05:51:34 AM 50.5695 3.8042 116° Southeast 489 563 35,000  Level FlightAware ADS-B (EHGR / GLZ)
Sun 05:51:55 AM 50.5474 3.8731 117° Southeast 492 566 35,000  Level FlightAware ADS-B (LRBS / BBU)
Sun 05:52:10 AM 50.5331 3.9177 117° Southeast 492 566 35,000  Level FlightAware ADS-B (EGLF / FAB)
Sun 05:52:41 AM 50.5001 4.0201 117° Southeast 492 566 35,000  Level FlightAware ADS-B
Sun 05:53:11 AM 50.4722 4.1058 117° Southeast 493 567 35,000  Level FlightAware ADS-B (EGLF / FAB)
Sun 05:53:42 AM 50.4382 4.2105 117° Southeast 492 566 35,000  Level FlightAware ADS-B (LRBS / BBU)
Sun 05:54:18 AM 50.4000 4.3278 117° Southeast 493 567 35,000  Level FlightAware ADS-B
Sun 05:54:49 AM 50.3669 4.4255 117° Southeast 478 550 35,000  Level FlightAware UK
Sun 05:54:50 AM 50.3675 4.4267 117° Southeast 495 570 35,000  Level FlightAware ADS-B (EHGR / GLZ)
Sun 05:55:21 AM 50.3339 4.5288 117° Southeast 494 568 35,000  Level FlightAware ADS-B (LRBS / BBU)
Sun 05:55:58 AM 50.2959 4.6435 117° Southeast 495 570 35,000  Level FlightAware ADS-B (LRBS / BBU)
Sun 05:56:33 AM 50.2594 4.7537 117° Southeast 494 568 35,000  Level FlightAware ADS-B (EHGR / GLZ)
Sun 05:57:20 AM 50.2124 4.8945 118° Southeast 495 570 35,000  Level FlightAware ADS-B (LRBS / BBU)
Sun 05:57:23 AM 50.2072 4.9095 119° Southeast 494 568 35,000  Level FlightAware ADS-B
Sun 05:58:08 AM 50.1527 5.0501 122° Southeast 494 568 35,000  Level FlightAware ADS-B (EHGR / GLZ)
Sun 05:58:39 AM 50.1162 5.1428 121° Southeast 496 571 35,000  Level FlightAware ADS-B (EHGR / GLZ)
Sun 05:59:26 AM 50.1018 5.1798 122° Southeast 496 571 35,000  Level FlightAware ADS-B (LRBS / BBU)
Sun 06:00:45 AM 49.9660 5.5225 122° Southeast 494 568 35,000  Level FlightAware ADS-B (EHGR / GLZ)
Sun 06:01:20 AM 49.9233 5.6284 122° Southeast 494 568 35,000  Level FlightAware ADS-B (EHGR / GLZ)
Sun 06:04:17 AM 49.7082 6.1555 123° Southeast 495 570 35,000  Level FlightAware ADS-B (EDKL)
Sun 06:04:48 AM 49.6696 6.2487 123° Southeast 495 570 35,000  Level FlightAware ADS-B (EDKL)
Sun 06:07:16 AM 50.0070 5.4206 122° Southeast 494 568 35,000  Level FlightAware ADS-B (LRBS / BBU)
Sun 06:19:29 AM 48.7907 9.0278 118° Southeast 498 573 35,000  Level FlightAware ADS-B (KGHG)
Sun 06:21:20 AM 48.6319 9.3212 133° Southeast 489 563 35,000  Level FlightAware ADS-B (KGHG)
Sun 06:22:45 AM 48.5200 9.5161 131° Southeast 494 568 35,000  Level FlightAware ADS-B (EDDM / MUC)
Sun 06:23:20 AM 48.4892 9.5703 131° Southeast 494 568 35,000  Level FlightAware ADS-B (KGHG)
Sun 06:24:07 AM 48.3832 9.7540 132° Southeast 493 567 35,000  Level FlightAware ADS-B (ETSE)
Sun 06:24:11 AM 48.3804 9.7585 133° Southeast 493 567 35,000  Level FlightAware ADS-B (ETSE)
Sun 06:24:46 AM 48.3724 9.7715 133° Southeast 494 568 35,000  Level FlightAware ADS-B (EDDM / MUC)
Sun 06:25:27 AM 48.3724 9.7715 133° Southeast 494 568 35,000  Level FlightAware ADS-B (ETSE)
Sun 06:26:24 AM 48.2299 10.0024 133° Southeast 494 568 35,000  Level FlightAware ADS-B (EDDM / MUC)
Sun 06:27:35 AM 48.3250 9.8483 133° Southeast 495 570 35,000  Level FlightAware ADS-B (KGHG)
Sun 06:30:43 AM 47.8069 10.6820 133° Southeast 498 573 35,000  Level FlightAware ADS-B (EDDM / MUC)
Sun 06:31:23 AM 47.7061 10.8412 133° Southeast 498 573 35,000  Level FlightAware ADS-B (EDDM / MUC)
Sun 06:31:57 AM 47.6516 10.9271 133° Southeast 499 574 35,000  Level FlightAware ADS-B (ETSE)
Sun 06:32:30 AM 47.6064 10.9991 131° Southeast 500 575 35,000  Level FlightAware ADS-B (EDDM / MUC)
Sun 06:33:09 AM 47.5541 11.1105 119° Southeast 504 580 35,000  Level FlightAware ADS-B (ETSE)
Sun 06:33:19 AM 47.5396 11.1521 116° Southeast 505 581 35,000  Level FlightAware ADS-B (EDDM / MUC)
Sun 06:33:49 AM 47.5097 11.2487 115° Southeast 506 582 35,000  Level FlightAware ADS-B (KGHG)
Sun 06:34:21 AM 47.4793 11.3471 114° Southeast 505 581 35,000  Level FlightAware ADS-B (KGHG)
Sun 06:34:56 AM 47.4481 11.4479 115° Southeast 505 581 35,000  Level FlightAware ADS-B (EDDM / MUC)
Sun 06:35:37 AM 47.4064 11.5814 115° Southeast 505 581 35,000  Level FlightAware ADS-B (ETSE)
Sun 06:36:19 AM 47.3635 11.7179 115° Southeast 505 581 35,000  Level FlightAware ADS-B (EDDM / MUC)
Sun 06:36:59 AM 47.3240 11.8429 115° Southeast 505 581 35,000  Level FlightAware ADS-B (ETSE)
Sun 06:37:29 AM 47.2969 11.9281 115° Southeast 506 582 35,000  Level FlightAware ADS-B (ETSE)
Sun 06:38:04 AM 47.2651 12.0254 116° Southeast 506 582 35,000  Level FlightAware ADS-B (EDDM / MUC)
Sun 06:38:36 AM 47.2270 12.1409 116° Southeast 505 581 35,000  Level FlightAware ADS-B (ETSE)
Sun 06:39:09 AM 47.2058 12.2050 116° Southeast 505 581 35,000  Level FlightAware ADS-B (ETSE)
Sun 06:39:39 AM 47.1628 12.3350 116° Southeast 505 581 35,000  Level FlightAware ADS-B (EDDM / MUC)
Sun 06:40:13 AM 47.1284 12.4389 116° Southeast 505 581 35,000  Level FlightAware ADS-B (ETSE)
Sun 06:40:46 AM 47.0941 12.5421 116° Southeast 505 581 35,000  Level FlightAware ADS-B (ETSE)
Sun 06:41:23 AM 47.0564 12.6548 116° Southeast 504 580 35,000  Level FlightAware ADS-B (EDDM / MUC)
Sun 06:42:05 AM 47.0133 12.7829 116° Southeast 504 580 35,000  Level FlightAware ADS-B (EDDM / MUC)
Sun 06:42:39 AM 46.9796 12.8827 116° Southeast 502 578 35,000  Level FlightAware ADS-B (EDDM / MUC)
Sun 06:43:11 AM 46.9482 12.9755 117° Southeast 500 575 35,000  Level FlightAware ADS-B (ETSE)
Sun 06:43:42 AM 46.9138 13.0763 116° Southeast 500 575 35,000  Level FlightAware ADS-B (EDDM / MUC)
Sun 06:44:27 AM 46.8682 13.2099 117° Southeast 497 572 35,000  Level FlightAware ADS-B (EDDM / MUC)
Sun 06:45:11 AM 46.8216 13.3456 117° Southeast 496 571 35,000  Level FlightAware ADS-B (EDDM / MUC)
Sun 06:45:50 AM 46.7817 13.4618 117° Southeast 496 571 35,000  Level FlightAware ADS-B (EDDM / MUC)
Sun 06:46:22 AM 46.7573 13.5319 117° Southeast 495 570 35,000  Level FlightAware ADS-B (EDDM / MUC)
Sun 06:46:59 AM 46.7107 13.6658 117° Southeast 494 568 35,000  Level FlightAware ADS-B (ETSE)
Sun 06:47:34 AM 46.6747 13.7689 117° Southeast 495 570 35,000  Level FlightAware ADS-B (EDDM / MUC)
Sun 06:48:32 AM 46.6142 13.9412 117° Southeast 494 568 35,000  Level FlightAware ADS-B (EDDM / MUC)
Sun 06:49:03 AM 46.5851 14.0237 117° Southeast 493 567 35,000  Level FlightAware ADS-B (EDDM / MUC)
Sun 06:49:49 AM 46.5352 14.1647 117° Southeast 493 567 35,000  Level FlightAware ADS-B (EDDM / MUC)
Sun 06:50:20 AM 46.5026 14.2563 117° Southeast 493 567 35,000  Level FlightAware ADS-B (EDDM / MUC)
Sun 06:51:04 AM 46.4561 14.3859 117° Southeast 489 563 35,000  Level FlightAware ADS-B (EDDM / MUC)
Sun 06:52:04 AM 46.3944 14.5583 118° Southeast 490 564 35,000  Level FlightAware ADS-B (EDDM / MUC)
Sun 06:52:51 AM 46.3448 14.6955 118° Southeast 490 564 35,000  Level FlightAware ADS-B (EDDM / MUC)
Sun 06:53:22 AM 46.3126 14.7840 118° Southeast 490 564 35,000  Level FlightAware ADS-B
Sun 06:54:01 AM 46.2714 14.8972 118° Southeast 489 563 35,000  Level FlightAware ADS-B (EDDM / MUC)
Sun 06:54:32 AM 46.2617 14.9237 118° Southeast 488 562 35,000  Level FlightAware ADS-B (EDDM / MUC)
Sun 06:58:00 AM 46.0174 15.5858 117° Southeast 492 566 35,000  Level FlightAware ADS-B
Sun 06:58:33 AM 45.9826 15.6798 117° Southeast 492 566 35,000  Level FlightAware ADS-B
Sun 07:45:19 AM 43.1880 23.6608 121° Southeast 515 593 35,000  Level FlightAware ADS-B
Sun 07:45:53 AM 43.1527 23.7427 120° Southeast 515 593 35,000  Level FlightAware ADS-B
Sun 07:46:34 AM 43.1026 23.8582 121° Southeast 518 596 35,000  Level FlightAware ADS-B
Sun 07:51:42 AM 42.7170 24.7342 121° Southeast 520 598 35,000  Level FlightAware ADS-B (LBBG / BOJ)
Sun 07:52:12 AM 42.6816 24.8134 121° Southeast 520 598 35,000  Level FlightAware ADS-B (LBBG / BOJ)
Sun 07:52:43 AM 42.6396 24.9070 121° Southeast 520 598 35,000  Level FlightAware ADS-B (LBBG / BOJ)
Sun 07:53:12 AM 42.6023 24.9899 121° Southeast 521 600 35,000  Level FlightAware ADS-B (LBBG / BOJ)
Sun 07:53:30 AM 42.5817 25.0355 121° Southeast 521 600 35,000  Level FlightAware ADS-B (LBBG / BOJ)
Sun 07:53:38 AM 42.6384 24.9098 121° Southeast 522 601 35,000  Level FlightAware ADS-B
Sun 07:54:12 AM 42.5280 25.1544 121° Southeast 520 598 35,000  Level FlightAware ADS-B (LBBG / BOJ)
Sun 07:54:42 AM 42.4903 25.2375 121° Southeast 519 597 35,000  Level FlightAware ADS-B (LBBG / BOJ)
Sun 07:55:12 AM 42.4519 25.3219 121° Southeast 519 597 35,000  Level FlightAware ADS-B (LBBG / BOJ)
Sun 07:55:43 AM 42.4148 25.4030 121° Southeast 519 597 35,000  Level FlightAware ADS-B (LBBG / BOJ)
Sun 07:56:12 AM 42.3783 25.4828 121° Southeast 519 597 35,000  Level FlightAware ADS-B (LBBG / BOJ)
Sun 07:56:39 AM 42.3414 25.5631 121° Southeast 518 596 35,000  Level FlightAware ADS-B (LBBG / BOJ)
Sun 07:57:13 AM 42.3003 25.6526 121° Southeast 517 595 35,000 -94 Level FlightAware ADS-B (LBBG / BOJ)
Sun 07:57:43 AM 42.2618 25.7358 121° Southeast 519 597 34,900 -800 Descending FlightAware ADS-B (LBBG / BOJ)
Sun 07:58:13 AM 42.2233 25.8190 121° Southeast 523 602 34,200 -1,322 Descending FlightAware ADS-B (LBBG / BOJ)
Sun 07:58:42 AM 42.1848 25.9019 121° Southeast 524 603 33,600 -1,017 Descending FlightAware ADS-B (LBBG / BOJ)
Sun 07:59:12 AM 42.1466 25.9840 122° Southeast 521 600 33,200 -900 Descending FlightAware ADS-B (LBBG / BOJ)
Sun 07:59:42 AM 42.1083 26.0662 122° Southeast 519 597 32,700 -1,200 Descending FlightAware ADS-B (LBBG / BOJ)
Sun 08:00:12 AM 42.0700 26.1483 122° Southeast 522 601 32,000 -1,279 Descending FlightAware ADS-B (LBBG / BOJ)
Sun 08:00:43 AM 42.0324 26.2285 122° Southeast 522 601 31,400 -900 Descending FlightAware ADS-B (LBBG / BOJ)
Sun 08:01:12 AM 41.9929 26.3127 122° Southeast 519 597 31,100 -348 Descending FlightAware ADS-B (LBBG / BOJ)
Sun 08:01:52 AM 41.9419 26.4207 122° Southeast 523 602 31,000 -86 Descending FlightAware ADS-B (LBBG / BOJ)
Sun 08:02:22 AM 41.9027 26.5033 122° Southeast 522 601 31,000 -100 Level FlightAware ADS-B (LBBG / BOJ)
Sun 08:02:52 AM 41.8635 26.5849 123° Southeast 520 598 30,900 -600 Descending FlightAware ADS-B (LBBG / BOJ)
Sun 08:03:22 AM 41.8242 26.6610 125° Southeast 517 595 30,400 -885 Descending FlightAware ADS-B (LBBG / BOJ)
Sun 08:03:53 AM 41.7822 26.7412 124° Southeast 512 589 30,000 -787 Descending FlightAware ADS-B (LBBG / BOJ)
Sun 08:04:23 AM 41.7407 26.8209 124° Southeast 508 585 29,600 -1,119 Descending FlightAware ADS-B (LBBG / BOJ)
Sun 08:04:52 AM 41.7010 26.8972 124° Southeast 501 577 28,900 -1,729 Descending FlightAware ADS-B (LBBG / BOJ)
Sun 08:05:22 AM 41.6624 26.9719 124° Southeast 492 566 27,900 -1,869 Descending FlightAware ADS-B (LBBG / BOJ)
Sun 08:05:53 AM 41.6237 27.0464 124° Southeast 482 555 27,000 -885 Descending FlightAware ADS-B (LBBG / BOJ)
Sun 08:06:23 AM 41.5864 27.1184 124° Southeast 479 551 27,000  Level FlightAware ADS-B (LBBG / BOJ)
Sun 08:06:53 AM 41.5474 27.1931 124° Southeast 479 551 27,000  Level FlightAware ADS-B (LBBG / BOJ)
Sun 08:07:23 AM 41.5098 27.2649 124° Southeast 479 551 27,000  Level FlightAware ADS-B (LBBG / BOJ)
Sun 08:07:53 AM 41.4727 27.3359 124° Southeast 451 519 27,000  Level FlightAware ADS-B (LBBG / BOJ)
Sun 08:08:23 AM 41.4370 27.4030 125° Southeast 438 504 27,000 -281 Level FlightAware ADS-B (LBBG / BOJ)
Sun 08:08:57 AM 41.3961 27.4792 125° Southeast 442 509 26,700 -738 Descending FlightAware ADS-B (LBBG / BOJ)
Sun 08:09:28 AM 41.3604 27.5457 125° Southeast 436 502 26,200 -1,100 Descending FlightAware ADS-B (LBBG / BOJ)
Sun 08:09:57 AM 41.3260 27.6101 125° Southeast 427 491 25,600 -1,322 Descending FlightAware ADS-B (LBBG / BOJ)
Sun 08:10:27 AM 41.2917 27.6739 125° Southeast 419 482 24,900 -1,400 Descending FlightAware ADS-B (LBBG / BOJ)
Sun 08:10:57 AM 41.2603 27.7324 125° Southeast 416 479 24,200 -1,300 Descending FlightAware ADS-B (LBBG / BOJ)
Sun 08:11:27 AM 41.2253 27.7972 125° Southeast 403 464 23,600 -1,082 Descending FlightAware ADS-B (LBBG / BOJ)
Sun 08:11:58 AM 41.1934 27.8562 125° Southeast 394 453 23,100 -1,082 Descending FlightAware ADS-B (LBBG / BOJ)
Sun 08:12:28 AM 41.1614 27.9153 125° Southeast 393 452 22,500 -1,322 Descending FlightAware ADS-B (LBBG / BOJ)
Sun 08:12:57 AM 41.1313 27.9718 124° Southeast 392 451 21,800 -1,500 Descending FlightAware ADS-B (LBBG / BOJ)
Sun 08:13:20 AM 41.1090 28.0152 124° Southeast 393 452 21,200 -1,520 Descending FlightAware ADS-B (LBBG / BOJ)
Sun 08:14:12 AM 41.0832 28.1164 75° East 396 456 19,900 -1,500 Descending FlightAware ADS-B (LBBG / BOJ)
Sun 08:16:00 AM 41.0329 28.4537 101° East  Level Estimated
Sun 08:17:00 AM 41.0045 28.6409 128° Southeast  Level Estimated
Sun 08:18:00 AM 40.9667 28.8000 128° Southeast  Level FlightAware Approximate
Sun 08:19:00 AM 40.9769 28.8211 128° Southeast  Level Estimated
Sun 08:20:00 AM 40.9769 28.8211 128° Southeast  Level Estimated
Sun 08:21:00 AM 40.9769 28.8211 128° Southeast  Level Estimated
Sun 08:22:00 AM 40.9769 28.8211 128° Southeast  Level Estimated
Sun 08:23:00 AM 40.9769 28.8211 128° Southeast  Level Estimated
Sun 08:24:00 AM 40.9769 28.8211 128° Southeast  Level Estimated
Sun 08:25:00 AM 40.9769 28.8211 128° Southeast  Level Estimated
Sun 08:26:00 AM 40.9769 28.8211 128° Southeast  Level Estimated
Sun 08:27:00 AM 40.9769 28.8211 128° Southeast  Level Estimated
Sun 08:28:00 AM 40.9769 28.8211 128° Southeast  Level Estimated

Login

Don't have an account? Register now (free) for customized features, flight alerts, and more!